<?xml version="1.0" encoding="UTF-8" standalone="no" ?>
<gpx xmlns="http://www.topografix.com/GPX/1/1" xmlns:xsi="http://www.w3.org/2001/XMLSchema-instance" xsi:schemaLocation="http://www.topografix.com/GPX/1/1 http://www.topografix.com/GPX/1/1/gpx.xsd" version="1.1" creator="VisuGPX - https://www.visugpx.com">
  <metadata>
    <name>83-M-Les Arcs</name>
    <desc><![CDATA[83-M-Les Arcs : circuit de Cabredor]]></desc>
  </metadata>
  <trk>
    <name><![CDATA[2019-02-06-M-Les Arcs - Le Cabredor]]></name>
    <trkseg>
      <trkpt lat="43.43529" lon="6.51107">
        <ele>-19.4</ele>
        <time>2019-02-06T13:00:40Z</time>
      </trkpt>
      <trkpt lat="43.43504" lon="6.51097">
        <ele>-24</ele>
        <time>2019-02-06T13:00:44Z</time>
      </trkpt>
      <trkpt lat="43.43495" lon="6.51097">
        <ele>-27.8</ele>
        <time>2019-02-06T13:00:50Z</time>
      </trkpt>
      <trkpt lat="43.43492" lon="6.51085">
        <ele>-34.9</ele>
        <time>2019-02-06T13:01:13Z</time>
      </trkpt>
      <trkpt lat="43.43486" lon="6.51076">
        <ele>-35.8</ele>
        <time>2019-02-06T13:01:23Z</time>
      </trkpt>
      <trkpt lat="43.43476" lon="6.51078">
        <ele>-36</ele>
        <time>2019-02-06T13:01:33Z</time>
      </trkpt>
      <trkpt lat="43.43467" lon="6.51079">
        <ele>-36.1</ele>
        <time>2019-02-06T13:01:42Z</time>
      </trkpt>
      <trkpt lat="43.43465" lon="6.51066">
        <ele>-36</ele>
        <time>2019-02-06T13:02:07Z</time>
      </trkpt>
      <trkpt lat="43.43456" lon="6.51063">
        <ele>-35.9</ele>
        <time>2019-02-06T13:02:21Z</time>
      </trkpt>
      <trkpt lat="43.43447" lon="6.51059">
        <ele>-35.9</ele>
        <time>2019-02-06T13:02:30Z</time>
      </trkpt>
      <trkpt lat="43.43435" lon="6.51056">
        <ele>-35.8</ele>
        <time>2019-02-06T13:02:53Z</time>
      </trkpt>
      <trkpt lat="43.43426" lon="6.51055">
        <ele>-35.8</ele>
        <time>2019-02-06T13:03:08Z</time>
      </trkpt>
      <trkpt lat="43.43419" lon="6.51047">
        <ele>-35.9</ele>
        <time>2019-02-06T13:03:29Z</time>
      </trkpt>
      <trkpt lat="43.43424" lon="6.51058">
        <ele>-36</ele>
        <time>2019-02-06T13:04:18Z</time>
      </trkpt>
      <trkpt lat="43.43412" lon="6.51055">
        <ele>-36.6</ele>
        <time>2019-02-06T13:05:15Z</time>
      </trkpt>
      <trkpt lat="43.43403" lon="6.51051">
        <ele>-37.4</ele>
        <time>2019-02-06T13:05:30Z</time>
      </trkpt>
      <trkpt lat="43.43394" lon="6.51048">
        <ele>-38.4</ele>
        <time>2019-02-06T13:05:45Z</time>
      </trkpt>
      <trkpt lat="43.43385" lon="6.51046">
        <ele>-40.2</ele>
        <time>2019-02-06T13:06:02Z</time>
      </trkpt>
      <trkpt lat="43.43376" lon="6.51045">
        <ele>-41.8</ele>
        <time>2019-02-06T13:06:13Z</time>
      </trkpt>
      <trkpt lat="43.43367" lon="6.5105">
        <ele>-44</ele>
        <time>2019-02-06T13:06:32Z</time>
      </trkpt>
      <trkpt lat="43.43358" lon="6.51045">
        <ele>-45</ele>
        <time>2019-02-06T13:07:01Z</time>
      </trkpt>
      <trkpt lat="43.4335" lon="6.51037">
        <ele>-44.9</ele>
        <time>2019-02-06T13:07:21Z</time>
      </trkpt>
      <trkpt lat="43.43341" lon="6.51038">
        <ele>-44.8</ele>
        <time>2019-02-06T13:07:33Z</time>
      </trkpt>
      <trkpt lat="43.43332" lon="6.51044">
        <ele>-44.7</ele>
        <time>2019-02-06T13:07:40Z</time>
      </trkpt>
      <trkpt lat="43.43324" lon="6.51053">
        <ele>-44.9</ele>
        <time>2019-02-06T13:07:47Z</time>
      </trkpt>
      <trkpt lat="43.43315" lon="6.51056">
        <ele>-45.4</ele>
        <time>2019-02-06T13:08:03Z</time>
      </trkpt>
      <trkpt lat="43.43307" lon="6.51051">
        <ele>-45.6</ele>
        <time>2019-02-06T13:08:41Z</time>
      </trkpt>
      <trkpt lat="43.43298" lon="6.51057">
        <ele>-45.9</ele>
        <time>2019-02-06T13:08:57Z</time>
      </trkpt>
      <trkpt lat="43.43291" lon="6.51048">
        <ele>-45.4</ele>
        <time>2019-02-06T13:09:16Z</time>
      </trkpt>
      <trkpt lat="43.43283" lon="6.51054">
        <ele>-44.2</ele>
        <time>2019-02-06T13:09:34Z</time>
      </trkpt>
      <trkpt lat="43.43269" lon="6.51053">
        <ele>-40.8</ele>
        <time>2019-02-06T13:10:26Z</time>
      </trkpt>
      <trkpt lat="43.43261" lon="6.51059">
        <ele>-39.3</ele>
        <time>2019-02-06T13:10:45Z</time>
      </trkpt>
      <trkpt lat="43.43253" lon="6.51068">
        <ele>-38.1</ele>
        <time>2019-02-06T13:11:06Z</time>
      </trkpt>
      <trkpt lat="43.43245" lon="6.5105">
        <ele>-27.9</ele>
        <time>2019-02-06T13:13:26Z</time>
      </trkpt>
      <trkpt lat="43.43236" lon="6.51048">
        <ele>-25.6</ele>
        <time>2019-02-06T13:13:48Z</time>
      </trkpt>
      <trkpt lat="43.43227" lon="6.51049">
        <ele>-25.1</ele>
        <time>2019-02-06T13:13:56Z</time>
      </trkpt>
      <trkpt lat="43.43218" lon="6.51044">
        <ele>-24.4</ele>
        <time>2019-02-06T13:14:08Z</time>
      </trkpt>
      <trkpt lat="43.43209" lon="6.51042">
        <ele>-23.7</ele>
        <time>2019-02-06T13:14:20Z</time>
      </trkpt>
      <trkpt lat="43.432" lon="6.51039">
        <ele>-23.2</ele>
        <time>2019-02-06T13:14:30Z</time>
      </trkpt>
      <trkpt lat="43.43189" lon="6.51037">
        <ele>-22.7</ele>
        <time>2019-02-06T13:14:40Z</time>
      </trkpt>
      <trkpt lat="43.43182" lon="6.51044">
        <ele>-19.3</ele>
        <time>2019-02-06T13:15:47Z</time>
      </trkpt>
      <trkpt lat="43.43172" lon="6.51045">
        <ele>-18.8</ele>
        <time>2019-02-06T13:15:57Z</time>
      </trkpt>
      <trkpt lat="43.43171" lon="6.51058">
        <ele>-14.2</ele>
        <time>2019-02-06T13:17:14Z</time>
      </trkpt>
      <trkpt lat="43.43168" lon="6.5107">
        <ele>-13</ele>
        <time>2019-02-06T13:17:26Z</time>
      </trkpt>
      <trkpt lat="43.43164" lon="6.51082">
        <ele>-11.6</ele>
        <time>2019-02-06T13:17:37Z</time>
      </trkpt>
      <trkpt lat="43.43157" lon="6.51091">
        <ele>-10.4</ele>
        <time>2019-02-06T13:17:47Z</time>
      </trkpt>
      <trkpt lat="43.43147" lon="6.51096">
        <ele>-9.3</ele>
        <time>2019-02-06T13:17:56Z</time>
      </trkpt>
      <trkpt lat="43.4314" lon="6.51103">
        <ele>-8.3</ele>
        <time>2019-02-06T13:18:03Z</time>
      </trkpt>
      <trkpt lat="43.43132" lon="6.51111">
        <ele>-7.1</ele>
        <time>2019-02-06T13:18:11Z</time>
      </trkpt>
      <trkpt lat="43.43126" lon="6.51122">
        <ele>-6</ele>
        <time>2019-02-06T13:18:20Z</time>
      </trkpt>
      <trkpt lat="43.43118" lon="6.51128">
        <ele>-4.6</ele>
        <time>2019-02-06T13:18:30Z</time>
      </trkpt>
      <trkpt lat="43.43109" lon="6.51129">
        <ele>-3.8</ele>
        <time>2019-02-06T13:18:36Z</time>
      </trkpt>
      <trkpt lat="43.431" lon="6.51134">
        <ele>-2.6</ele>
        <time>2019-02-06T13:18:44Z</time>
      </trkpt>
      <trkpt lat="43.43092" lon="6.51138">
        <ele>-1.4</ele>
        <time>2019-02-06T13:18:52Z</time>
      </trkpt>
      <trkpt lat="43.43084" lon="6.51144">
        <ele>-0.1</ele>
        <time>2019-02-06T13:19:03Z</time>
      </trkpt>
      <trkpt lat="43.43074" lon="6.51145">
        <ele>0.7</ele>
        <time>2019-02-06T13:19:11Z</time>
      </trkpt>
      <trkpt lat="43.43065" lon="6.51145">
        <ele>1.3</ele>
        <time>2019-02-06T13:19:20Z</time>
      </trkpt>
      <trkpt lat="43.43056" lon="6.51143">
        <ele>2</ele>
        <time>2019-02-06T13:19:34Z</time>
      </trkpt>
      <trkpt lat="43.43047" lon="6.51139">
        <ele>2.6</ele>
        <time>2019-02-06T13:19:46Z</time>
      </trkpt>
      <trkpt lat="43.43038" lon="6.51134">
        <ele>2.9</ele>
        <time>2019-02-06T13:19:54Z</time>
      </trkpt>
      <trkpt lat="43.43036" lon="6.51121">
        <ele>3.2</ele>
        <time>2019-02-06T13:20:01Z</time>
      </trkpt>
      <trkpt lat="43.43031" lon="6.5111">
        <ele>3.5</ele>
        <time>2019-02-06T13:20:09Z</time>
      </trkpt>
      <trkpt lat="43.4302" lon="6.51112">
        <ele>3.6</ele>
        <time>2019-02-06T13:20:16Z</time>
      </trkpt>
      <trkpt lat="43.43013" lon="6.5112">
        <ele>3.8</ele>
        <time>2019-02-06T13:20:22Z</time>
      </trkpt>
      <trkpt lat="43.43008" lon="6.51131">
        <ele>4</ele>
        <time>2019-02-06T13:20:29Z</time>
      </trkpt>
      <trkpt lat="43.43004" lon="6.51144">
        <ele>4.3</ele>
        <time>2019-02-06T13:20:37Z</time>
      </trkpt>
      <trkpt lat="43.43002" lon="6.51156">
        <ele>4.7</ele>
        <time>2019-02-06T13:20:46Z</time>
      </trkpt>
      <trkpt lat="43.42998" lon="6.51167">
        <ele>5.3</ele>
        <time>2019-02-06T13:20:54Z</time>
      </trkpt>
      <trkpt lat="43.42997" lon="6.51181">
        <ele>5.7</ele>
        <time>2019-02-06T13:21:01Z</time>
      </trkpt>
      <trkpt lat="43.42996" lon="6.51194">
        <ele>6.5</ele>
        <time>2019-02-06T13:21:11Z</time>
      </trkpt>
      <trkpt lat="43.42991" lon="6.51205">
        <ele>7.2</ele>
        <time>2019-02-06T13:21:20Z</time>
      </trkpt>
      <trkpt lat="43.42981" lon="6.51213">
        <ele>7.8</ele>
        <time>2019-02-06T13:21:28Z</time>
      </trkpt>
      <trkpt lat="43.42973" lon="6.51222">
        <ele>8.2</ele>
        <time>2019-02-06T13:21:35Z</time>
      </trkpt>
      <trkpt lat="43.42967" lon="6.51233">
        <ele>8.8</ele>
        <time>2019-02-06T13:21:44Z</time>
      </trkpt>
      <trkpt lat="43.42964" lon="6.51246">
        <ele>9.6</ele>
        <time>2019-02-06T13:21:56Z</time>
      </trkpt>
      <trkpt lat="43.42963" lon="6.51259">
        <ele>10.1</ele>
        <time>2019-02-06T13:22:06Z</time>
      </trkpt>
      <trkpt lat="43.4296" lon="6.51272">
        <ele>10.6</ele>
        <time>2019-02-06T13:22:16Z</time>
      </trkpt>
      <trkpt lat="43.4296" lon="6.51284">
        <ele>11</ele>
        <time>2019-02-06T13:22:24Z</time>
      </trkpt>
      <trkpt lat="43.4296" lon="6.51298">
        <ele>11.4</ele>
        <time>2019-02-06T13:22:31Z</time>
      </trkpt>
      <trkpt lat="43.42952" lon="6.51304">
        <ele>11.6</ele>
        <time>2019-02-06T13:22:35Z</time>
      </trkpt>
      <trkpt lat="43.42947" lon="6.51316">
        <ele>12</ele>
        <time>2019-02-06T13:22:43Z</time>
      </trkpt>
      <trkpt lat="43.42947" lon="6.51329">
        <ele>12.4</ele>
        <time>2019-02-06T13:22:51Z</time>
      </trkpt>
      <trkpt lat="43.42945" lon="6.51341">
        <ele>12.8</ele>
        <time>2019-02-06T13:22:58Z</time>
      </trkpt>
      <trkpt lat="43.4294" lon="6.51353">
        <ele>13.2</ele>
        <time>2019-02-06T13:23:07Z</time>
      </trkpt>
      <trkpt lat="43.42937" lon="6.51365">
        <ele>13.6</ele>
        <time>2019-02-06T13:23:14Z</time>
      </trkpt>
      <trkpt lat="43.42934" lon="6.51377">
        <ele>14</ele>
        <time>2019-02-06T13:23:22Z</time>
      </trkpt>
      <trkpt lat="43.42929" lon="6.51389">
        <ele>14.4</ele>
        <time>2019-02-06T13:23:31Z</time>
      </trkpt>
      <trkpt lat="43.42929" lon="6.51404">
        <ele>14.8</ele>
        <time>2019-02-06T13:23:39Z</time>
      </trkpt>
      <trkpt lat="43.42923" lon="6.51413">
        <ele>14.9</ele>
        <time>2019-02-06T13:23:47Z</time>
      </trkpt>
      <trkpt lat="43.42923" lon="6.51426">
        <ele>15.3</ele>
        <time>2019-02-06T13:23:59Z</time>
      </trkpt>
      <trkpt lat="43.42917" lon="6.51436">
        <ele>15.7</ele>
        <time>2019-02-06T13:24:10Z</time>
      </trkpt>
      <trkpt lat="43.4291" lon="6.51444">
        <ele>16.2</ele>
        <time>2019-02-06T13:24:20Z</time>
      </trkpt>
      <trkpt lat="43.42912" lon="6.51458">
        <ele>16.7</ele>
        <time>2019-02-06T13:24:31Z</time>
      </trkpt>
      <trkpt lat="43.42919" lon="6.51467">
        <ele>17</ele>
        <time>2019-02-06T13:24:38Z</time>
      </trkpt>
      <trkpt lat="43.4292" lon="6.5148">
        <ele>17.4</ele>
        <time>2019-02-06T13:24:45Z</time>
      </trkpt>
      <trkpt lat="43.42921" lon="6.51492">
        <ele>17.6</ele>
        <time>2019-02-06T13:24:53Z</time>
      </trkpt>
      <trkpt lat="43.42923" lon="6.51505">
        <ele>17.6</ele>
        <time>2019-02-06T13:25:01Z</time>
      </trkpt>
      <trkpt lat="43.42923" lon="6.51518">
        <ele>17.5</ele>
        <time>2019-02-06T13:25:08Z</time>
      </trkpt>
      <trkpt lat="43.42922" lon="6.51533">
        <ele>17.6</ele>
        <time>2019-02-06T13:25:15Z</time>
      </trkpt>
      <trkpt lat="43.42923" lon="6.51547">
        <ele>17.6</ele>
        <time>2019-02-06T13:25:22Z</time>
      </trkpt>
      <trkpt lat="43.42919" lon="6.51559">
        <ele>17.6</ele>
        <time>2019-02-06T13:25:29Z</time>
      </trkpt>
      <trkpt lat="43.42911" lon="6.51568">
        <ele>17.7</ele>
        <time>2019-02-06T13:25:39Z</time>
      </trkpt>
      <trkpt lat="43.42902" lon="6.51574">
        <ele>17.8</ele>
        <time>2019-02-06T13:25:46Z</time>
      </trkpt>
      <trkpt lat="43.42894" lon="6.51583">
        <ele>17.8</ele>
        <time>2019-02-06T13:25:54Z</time>
      </trkpt>
      <trkpt lat="43.42886" lon="6.5159">
        <ele>17.7</ele>
        <time>2019-02-06T13:26:00Z</time>
      </trkpt>
      <trkpt lat="43.42879" lon="6.51597">
        <ele>17.8</ele>
        <time>2019-02-06T13:26:05Z</time>
      </trkpt>
      <trkpt lat="43.42872" lon="6.51607">
        <ele>17.8</ele>
        <time>2019-02-06T13:26:14Z</time>
      </trkpt>
      <trkpt lat="43.42866" lon="6.51618">
        <ele>17.9</ele>
        <time>2019-02-06T13:26:23Z</time>
      </trkpt>
      <trkpt lat="43.42861" lon="6.5163">
        <ele>17.9</ele>
        <time>2019-02-06T13:26:32Z</time>
      </trkpt>
      <trkpt lat="43.42856" lon="6.51641">
        <ele>18.1</ele>
        <time>2019-02-06T13:26:43Z</time>
      </trkpt>
      <trkpt lat="43.42854" lon="6.51653">
        <ele>18.4</ele>
        <time>2019-02-06T13:26:55Z</time>
      </trkpt>
      <trkpt lat="43.42858" lon="6.51666">
        <ele>18.5</ele>
        <time>2019-02-06T13:27:03Z</time>
      </trkpt>
      <trkpt lat="43.42864" lon="6.51676">
        <ele>18.7</ele>
        <time>2019-02-06T13:27:10Z</time>
      </trkpt>
      <trkpt lat="43.42868" lon="6.51688">
        <ele>18.8</ele>
        <time>2019-02-06T13:27:16Z</time>
      </trkpt>
      <trkpt lat="43.42867" lon="6.517">
        <ele>19</ele>
        <time>2019-02-06T13:27:22Z</time>
      </trkpt>
      <trkpt lat="43.4287" lon="6.51713">
        <ele>19.3</ele>
        <time>2019-02-06T13:27:30Z</time>
      </trkpt>
      <trkpt lat="43.42878" lon="6.5172">
        <ele>19.5</ele>
        <time>2019-02-06T13:27:39Z</time>
      </trkpt>
      <trkpt lat="43.42887" lon="6.51728">
        <ele>19.7</ele>
        <time>2019-02-06T13:27:46Z</time>
      </trkpt>
      <trkpt lat="43.42894" lon="6.51737">
        <ele>19.9</ele>
        <time>2019-02-06T13:27:52Z</time>
      </trkpt>
      <trkpt lat="43.42893" lon="6.5175">
        <ele>20</ele>
        <time>2019-02-06T13:27:57Z</time>
      </trkpt>
      <trkpt lat="43.429" lon="6.51759">
        <ele>20.2</ele>
        <time>2019-02-06T13:28:04Z</time>
      </trkpt>
      <trkpt lat="43.42904" lon="6.51771">
        <ele>20.3</ele>
        <time>2019-02-06T13:28:12Z</time>
      </trkpt>
      <trkpt lat="43.42906" lon="6.51784">
        <ele>20.4</ele>
        <time>2019-02-06T13:28:18Z</time>
      </trkpt>
      <trkpt lat="43.42908" lon="6.51798">
        <ele>20.6</ele>
        <time>2019-02-06T13:28:23Z</time>
      </trkpt>
      <trkpt lat="43.42912" lon="6.5181">
        <ele>20.9</ele>
        <time>2019-02-06T13:28:32Z</time>
      </trkpt>
      <trkpt lat="43.42915" lon="6.51823">
        <ele>21.3</ele>
        <time>2019-02-06T13:28:41Z</time>
      </trkpt>
      <trkpt lat="43.42921" lon="6.51834">
        <ele>21.7</ele>
        <time>2019-02-06T13:28:50Z</time>
      </trkpt>
      <trkpt lat="43.42923" lon="6.51847">
        <ele>22.1</ele>
        <time>2019-02-06T13:29:00Z</time>
      </trkpt>
      <trkpt lat="43.42923" lon="6.51859">
        <ele>22.5</ele>
        <time>2019-02-06T13:29:07Z</time>
      </trkpt>
      <trkpt lat="43.42922" lon="6.51872">
        <ele>22.9</ele>
        <time>2019-02-06T13:29:14Z</time>
      </trkpt>
      <trkpt lat="43.42922" lon="6.51887">
        <ele>23.4</ele>
        <time>2019-02-06T13:29:23Z</time>
      </trkpt>
      <trkpt lat="43.42921" lon="6.51901">
        <ele>24</ele>
        <time>2019-02-06T13:29:35Z</time>
      </trkpt>
      <trkpt lat="43.42923" lon="6.51913">
        <ele>24.3</ele>
        <time>2019-02-06T13:29:40Z</time>
      </trkpt>
      <trkpt lat="43.42928" lon="6.51926">
        <ele>24.5</ele>
        <time>2019-02-06T13:29:48Z</time>
      </trkpt>
      <trkpt lat="43.42929" lon="6.51939">
        <ele>24.8</ele>
        <time>2019-02-06T13:29:57Z</time>
      </trkpt>
      <trkpt lat="43.4293" lon="6.51952">
        <ele>24.9</ele>
        <time>2019-02-06T13:30:04Z</time>
      </trkpt>
      <trkpt lat="43.42932" lon="6.51964">
        <ele>24.8</ele>
        <time>2019-02-06T13:30:10Z</time>
      </trkpt>
      <trkpt lat="43.42935" lon="6.51978">
        <ele>24.8</ele>
        <time>2019-02-06T13:30:19Z</time>
      </trkpt>
      <trkpt lat="43.4294" lon="6.5199">
        <ele>24.8</ele>
        <time>2019-02-06T13:30:30Z</time>
      </trkpt>
      <trkpt lat="43.42945" lon="6.52001">
        <ele>24.7</ele>
        <time>2019-02-06T13:30:38Z</time>
      </trkpt>
      <trkpt lat="43.42948" lon="6.52014">
        <ele>24.4</ele>
        <time>2019-02-06T13:30:47Z</time>
      </trkpt>
      <trkpt lat="43.4295" lon="6.52027">
        <ele>24.2</ele>
        <time>2019-02-06T13:30:53Z</time>
      </trkpt>
      <trkpt lat="43.42957" lon="6.52036">
        <ele>24.1</ele>
        <time>2019-02-06T13:31:00Z</time>
      </trkpt>
      <trkpt lat="43.42962" lon="6.52047">
        <ele>24.1</ele>
        <time>2019-02-06T13:31:07Z</time>
      </trkpt>
      <trkpt lat="43.42967" lon="6.52058">
        <ele>23.9</ele>
        <time>2019-02-06T13:31:14Z</time>
      </trkpt>
      <trkpt lat="43.4297" lon="6.5207">
        <ele>23.7</ele>
        <time>2019-02-06T13:31:22Z</time>
      </trkpt>
      <trkpt lat="43.42973" lon="6.52084">
        <ele>23.7</ele>
        <time>2019-02-06T13:31:30Z</time>
      </trkpt>
      <trkpt lat="43.42974" lon="6.52097">
        <ele>23.8</ele>
        <time>2019-02-06T13:31:38Z</time>
      </trkpt>
      <trkpt lat="43.42979" lon="6.52108">
        <ele>24.1</ele>
        <time>2019-02-06T13:31:48Z</time>
      </trkpt>
      <trkpt lat="43.42983" lon="6.52121">
        <ele>24.3</ele>
        <time>2019-02-06T13:31:55Z</time>
      </trkpt>
      <trkpt lat="43.42988" lon="6.52132">
        <ele>24.7</ele>
        <time>2019-02-06T13:32:03Z</time>
      </trkpt>
      <trkpt lat="43.42996" lon="6.5214">
        <ele>25.1</ele>
        <time>2019-02-06T13:32:12Z</time>
      </trkpt>
      <trkpt lat="43.42999" lon="6.52153">
        <ele>25.4</ele>
        <time>2019-02-06T13:32:19Z</time>
      </trkpt>
      <trkpt lat="43.43002" lon="6.52167">
        <ele>25.6</ele>
        <time>2019-02-06T13:32:24Z</time>
      </trkpt>
      <trkpt lat="43.43004" lon="6.5218">
        <ele>26</ele>
        <time>2019-02-06T13:32:32Z</time>
      </trkpt>
      <trkpt lat="43.43007" lon="6.52193">
        <ele>26.4</ele>
        <time>2019-02-06T13:32:40Z</time>
      </trkpt>
      <trkpt lat="43.43009" lon="6.52205">
        <ele>26.8</ele>
        <time>2019-02-06T13:32:49Z</time>
      </trkpt>
      <trkpt lat="43.43013" lon="6.52217">
        <ele>27</ele>
        <time>2019-02-06T13:32:53Z</time>
      </trkpt>
      <trkpt lat="43.43015" lon="6.5223">
        <ele>27.4</ele>
        <time>2019-02-06T13:33:02Z</time>
      </trkpt>
      <trkpt lat="43.4302" lon="6.52241">
        <ele>27.8</ele>
        <time>2019-02-06T13:33:09Z</time>
      </trkpt>
      <trkpt lat="43.43019" lon="6.52255">
        <ele>28.1</ele>
        <time>2019-02-06T13:33:16Z</time>
      </trkpt>
      <trkpt lat="43.43017" lon="6.52267">
        <ele>28.6</ele>
        <time>2019-02-06T13:33:25Z</time>
      </trkpt>
      <trkpt lat="43.43017" lon="6.5228">
        <ele>29.1</ele>
        <time>2019-02-06T13:33:35Z</time>
      </trkpt>
      <trkpt lat="43.43008" lon="6.52287">
        <ele>29.3</ele>
        <time>2019-02-06T13:33:40Z</time>
      </trkpt>
      <trkpt lat="43.42998" lon="6.52292">
        <ele>29.5</ele>
        <time>2019-02-06T13:33:43Z</time>
      </trkpt>
      <trkpt lat="43.4299" lon="6.52299">
        <ele>29.8</ele>
        <time>2019-02-06T13:33:49Z</time>
      </trkpt>
      <trkpt lat="43.42979" lon="6.52311">
        <ele>30</ele>
        <time>2019-02-06T13:33:53Z</time>
      </trkpt>
      <trkpt lat="43.42975" lon="6.52322">
        <ele>30.3</ele>
        <time>2019-02-06T13:33:59Z</time>
      </trkpt>
      <trkpt lat="43.42966" lon="6.52329">
        <ele>30.6</ele>
        <time>2019-02-06T13:34:05Z</time>
      </trkpt>
      <trkpt lat="43.42959" lon="6.52337">
        <ele>31</ele>
        <time>2019-02-06T13:34:13Z</time>
      </trkpt>
      <trkpt lat="43.4295" lon="6.52342">
        <ele>31.4</ele>
        <time>2019-02-06T13:34:22Z</time>
      </trkpt>
      <trkpt lat="43.42944" lon="6.52351">
        <ele>31.9</ele>
        <time>2019-02-06T13:34:32Z</time>
      </trkpt>
      <trkpt lat="43.42935" lon="6.52355">
        <ele>32.3</ele>
        <time>2019-02-06T13:34:39Z</time>
      </trkpt>
      <trkpt lat="43.42925" lon="6.52358">
        <ele>32.8</ele>
        <time>2019-02-06T13:34:49Z</time>
      </trkpt>
      <trkpt lat="43.42916" lon="6.52352">
        <ele>33.3</ele>
        <time>2019-02-06T13:35:00Z</time>
      </trkpt>
      <trkpt lat="43.42907" lon="6.5235">
        <ele>33.6</ele>
        <time>2019-02-06T13:35:07Z</time>
      </trkpt>
      <trkpt lat="43.42897" lon="6.52351">
        <ele>34</ele>
        <time>2019-02-06T13:35:15Z</time>
      </trkpt>
      <trkpt lat="43.42889" lon="6.52357">
        <ele>34.4</ele>
        <time>2019-02-06T13:35:22Z</time>
      </trkpt>
      <trkpt lat="43.4288" lon="6.52362">
        <ele>34.7</ele>
        <time>2019-02-06T13:35:29Z</time>
      </trkpt>
      <trkpt lat="43.42862" lon="6.52357">
        <ele>36</ele>
        <time>2019-02-06T13:36:16Z</time>
      </trkpt>
      <trkpt lat="43.42859" lon="6.52374">
        <ele>37.6</ele>
        <time>2019-02-06T13:36:32Z</time>
      </trkpt>
      <trkpt lat="43.42865" lon="6.52385">
        <ele>38</ele>
        <time>2019-02-06T13:36:40Z</time>
      </trkpt>
      <trkpt lat="43.42875" lon="6.5239">
        <ele>38.4</ele>
        <time>2019-02-06T13:36:50Z</time>
      </trkpt>
      <trkpt lat="43.42883" lon="6.52396">
        <ele>38.8</ele>
        <time>2019-02-06T13:36:58Z</time>
      </trkpt>
      <trkpt lat="43.42892" lon="6.52402">
        <ele>40.6</ele>
        <time>2019-02-06T13:37:34Z</time>
      </trkpt>
      <trkpt lat="43.42901" lon="6.52402">
        <ele>40.9</ele>
        <time>2019-02-06T13:37:41Z</time>
      </trkpt>
      <trkpt lat="43.4291" lon="6.52407">
        <ele>41.3</ele>
        <time>2019-02-06T13:37:49Z</time>
      </trkpt>
      <trkpt lat="43.42918" lon="6.52414">
        <ele>41.7</ele>
        <time>2019-02-06T13:37:58Z</time>
      </trkpt>
      <trkpt lat="43.42926" lon="6.52419">
        <ele>42.4</ele>
        <time>2019-02-06T13:38:11Z</time>
      </trkpt>
      <trkpt lat="43.42935" lon="6.52414">
        <ele>43.2</ele>
        <time>2019-02-06T13:38:22Z</time>
      </trkpt>
      <trkpt lat="43.42944" lon="6.52408">
        <ele>43.7</ele>
        <time>2019-02-06T13:38:28Z</time>
      </trkpt>
      <trkpt lat="43.42952" lon="6.52402">
        <ele>44.5</ele>
        <time>2019-02-06T13:38:38Z</time>
      </trkpt>
      <trkpt lat="43.42959" lon="6.52393">
        <ele>45.1</ele>
        <time>2019-02-06T13:38:48Z</time>
      </trkpt>
      <trkpt lat="43.42967" lon="6.52383">
        <ele>45.7</ele>
        <time>2019-02-06T13:38:57Z</time>
      </trkpt>
      <trkpt lat="43.42976" lon="6.52377">
        <ele>46.2</ele>
        <time>2019-02-06T13:39:04Z</time>
      </trkpt>
      <trkpt lat="43.42986" lon="6.5238">
        <ele>46.5</ele>
        <time>2019-02-06T13:39:11Z</time>
      </trkpt>
      <trkpt lat="43.42993" lon="6.52388">
        <ele>47</ele>
        <time>2019-02-06T13:39:19Z</time>
      </trkpt>
      <trkpt lat="43.42996" lon="6.524">
        <ele>47.3</ele>
        <time>2019-02-06T13:39:27Z</time>
      </trkpt>
      <trkpt lat="43.42996" lon="6.52413">
        <ele>47.6</ele>
        <time>2019-02-06T13:39:34Z</time>
      </trkpt>
      <trkpt lat="43.42995" lon="6.52425">
        <ele>47.9</ele>
        <time>2019-02-06T13:39:42Z</time>
      </trkpt>
      <trkpt lat="43.42998" lon="6.52438">
        <ele>48.6</ele>
        <time>2019-02-06T13:39:52Z</time>
      </trkpt>
      <trkpt lat="43.43001" lon="6.52451">
        <ele>49.4</ele>
        <time>2019-02-06T13:40:00Z</time>
      </trkpt>
      <trkpt lat="43.42999" lon="6.52465">
        <ele>50.2</ele>
        <time>2019-02-06T13:40:09Z</time>
      </trkpt>
      <trkpt lat="43.42995" lon="6.52477">
        <ele>51.2</ele>
        <time>2019-02-06T13:40:17Z</time>
      </trkpt>
      <trkpt lat="43.4299" lon="6.52488">
        <ele>52.3</ele>
        <time>2019-02-06T13:40:26Z</time>
      </trkpt>
      <trkpt lat="43.42987" lon="6.525">
        <ele>53.1</ele>
        <time>2019-02-06T13:40:35Z</time>
      </trkpt>
      <trkpt lat="43.42981" lon="6.52512">
        <ele>54.3</ele>
        <time>2019-02-06T13:40:45Z</time>
      </trkpt>
      <trkpt lat="43.42978" lon="6.52525">
        <ele>55.5</ele>
        <time>2019-02-06T13:40:55Z</time>
      </trkpt>
      <trkpt lat="43.42976" lon="6.52538">
        <ele>56.8</ele>
        <time>2019-02-06T13:41:07Z</time>
      </trkpt>
      <trkpt lat="43.42975" lon="6.52551">
        <ele>57.7</ele>
        <time>2019-02-06T13:41:18Z</time>
      </trkpt>
      <trkpt lat="43.42978" lon="6.52564">
        <ele>58.7</ele>
        <time>2019-02-06T13:41:29Z</time>
      </trkpt>
      <trkpt lat="43.42987" lon="6.52569">
        <ele>59.2</ele>
        <time>2019-02-06T13:41:37Z</time>
      </trkpt>
      <trkpt lat="43.42992" lon="6.52558">
        <ele>60</ele>
        <time>2019-02-06T13:41:51Z</time>
      </trkpt>
      <trkpt lat="43.43" lon="6.52551">
        <ele>60.4</ele>
        <time>2019-02-06T13:42:00Z</time>
      </trkpt>
      <trkpt lat="43.43007" lon="6.52541">
        <ele>60.7</ele>
        <time>2019-02-06T13:42:09Z</time>
      </trkpt>
      <trkpt lat="43.43015" lon="6.52536">
        <ele>61</ele>
        <time>2019-02-06T13:42:16Z</time>
      </trkpt>
      <trkpt lat="43.43023" lon="6.52528">
        <ele>61.4</ele>
        <time>2019-02-06T13:42:24Z</time>
      </trkpt>
      <trkpt lat="43.43024" lon="6.52515">
        <ele>62.1</ele>
        <time>2019-02-06T13:42:33Z</time>
      </trkpt>
      <trkpt lat="43.43027" lon="6.52503">
        <ele>62.7</ele>
        <time>2019-02-06T13:42:42Z</time>
      </trkpt>
      <trkpt lat="43.43029" lon="6.5249">
        <ele>63.3</ele>
        <time>2019-02-06T13:42:53Z</time>
      </trkpt>
      <trkpt lat="43.43038" lon="6.52488">
        <ele>63.7</ele>
        <time>2019-02-06T13:42:59Z</time>
      </trkpt>
      <trkpt lat="43.43049" lon="6.52485">
        <ele>63.9</ele>
        <time>2019-02-06T13:43:02Z</time>
      </trkpt>
      <trkpt lat="43.43057" lon="6.52478">
        <ele>64</ele>
        <time>2019-02-06T13:43:06Z</time>
      </trkpt>
      <trkpt lat="43.43065" lon="6.52472">
        <ele>64.5</ele>
        <time>2019-02-06T13:43:12Z</time>
      </trkpt>
      <trkpt lat="43.43075" lon="6.52473">
        <ele>64.9</ele>
        <time>2019-02-06T13:43:20Z</time>
      </trkpt>
      <trkpt lat="43.43078" lon="6.52485">
        <ele>66</ele>
        <time>2019-02-06T13:43:37Z</time>
      </trkpt>
      <trkpt lat="43.43086" lon="6.52491">
        <ele>67.2</ele>
        <time>2019-02-06T13:43:51Z</time>
      </trkpt>
      <trkpt lat="43.43095" lon="6.52496">
        <ele>67.9</ele>
        <time>2019-02-06T13:44:03Z</time>
      </trkpt>
      <trkpt lat="43.43103" lon="6.52503">
        <ele>68.5</ele>
        <time>2019-02-06T13:44:15Z</time>
      </trkpt>
      <trkpt lat="43.43111" lon="6.52509">
        <ele>69.1</ele>
        <time>2019-02-06T13:44:23Z</time>
      </trkpt>
      <trkpt lat="43.43118" lon="6.52519">
        <ele>69.8</ele>
        <time>2019-02-06T13:44:32Z</time>
      </trkpt>
      <trkpt lat="43.43125" lon="6.52529">
        <ele>70.6</ele>
        <time>2019-02-06T13:44:43Z</time>
      </trkpt>
      <trkpt lat="43.43133" lon="6.52537">
        <ele>71.6</ele>
        <time>2019-02-06T13:44:55Z</time>
      </trkpt>
      <trkpt lat="43.43142" lon="6.52539">
        <ele>72.1</ele>
        <time>2019-02-06T13:45:04Z</time>
      </trkpt>
      <trkpt lat="43.43151" lon="6.52545">
        <ele>72.6</ele>
        <time>2019-02-06T13:45:13Z</time>
      </trkpt>
      <trkpt lat="43.4316" lon="6.52549">
        <ele>73</ele>
        <time>2019-02-06T13:45:19Z</time>
      </trkpt>
      <trkpt lat="43.43169" lon="6.52553">
        <ele>73.7</ele>
        <time>2019-02-06T13:45:29Z</time>
      </trkpt>
      <trkpt lat="43.43178" lon="6.52557">
        <ele>74.6</ele>
        <time>2019-02-06T13:45:41Z</time>
      </trkpt>
      <trkpt lat="43.43187" lon="6.52559">
        <ele>75.3</ele>
        <time>2019-02-06T13:45:50Z</time>
      </trkpt>
      <trkpt lat="43.43196" lon="6.52562">
        <ele>75.9</ele>
        <time>2019-02-06T13:46:00Z</time>
      </trkpt>
      <trkpt lat="43.43205" lon="6.52567">
        <ele>76.6</ele>
        <time>2019-02-06T13:46:09Z</time>
      </trkpt>
      <trkpt lat="43.43214" lon="6.52572">
        <ele>77.4</ele>
        <time>2019-02-06T13:46:18Z</time>
      </trkpt>
      <trkpt lat="43.43223" lon="6.5257">
        <ele>78</ele>
        <time>2019-02-06T13:46:26Z</time>
      </trkpt>
      <trkpt lat="43.43232" lon="6.5257">
        <ele>78.7</ele>
        <time>2019-02-06T13:46:36Z</time>
      </trkpt>
      <trkpt lat="43.43241" lon="6.5257">
        <ele>79.4</ele>
        <time>2019-02-06T13:46:45Z</time>
      </trkpt>
      <trkpt lat="43.4325" lon="6.5257">
        <ele>80</ele>
        <time>2019-02-06T13:46:56Z</time>
      </trkpt>
      <trkpt lat="43.43259" lon="6.52572">
        <ele>80.4</ele>
        <time>2019-02-06T13:47:04Z</time>
      </trkpt>
      <trkpt lat="43.43269" lon="6.52574">
        <ele>81.1</ele>
        <time>2019-02-06T13:47:14Z</time>
      </trkpt>
      <trkpt lat="43.43279" lon="6.52577">
        <ele>81.9</ele>
        <time>2019-02-06T13:47:27Z</time>
      </trkpt>
      <trkpt lat="43.43288" lon="6.5258">
        <ele>82.7</ele>
        <time>2019-02-06T13:47:37Z</time>
      </trkpt>
      <trkpt lat="43.43297" lon="6.52584">
        <ele>83.9</ele>
        <time>2019-02-06T13:47:50Z</time>
      </trkpt>
      <trkpt lat="43.43306" lon="6.5259">
        <ele>84.6</ele>
        <time>2019-02-06T13:47:59Z</time>
      </trkpt>
      <trkpt lat="43.43314" lon="6.52597">
        <ele>85</ele>
        <time>2019-02-06T13:48:06Z</time>
      </trkpt>
      <trkpt lat="43.43318" lon="6.52608">
        <ele>85.6</ele>
        <time>2019-02-06T13:48:17Z</time>
      </trkpt>
      <trkpt lat="43.4332" lon="6.52621">
        <ele>86.1</ele>
        <time>2019-02-06T13:48:27Z</time>
      </trkpt>
      <trkpt lat="43.43322" lon="6.52634">
        <ele>86.8</ele>
        <time>2019-02-06T13:48:37Z</time>
      </trkpt>
      <trkpt lat="43.43324" lon="6.52647">
        <ele>87.5</ele>
        <time>2019-02-06T13:48:47Z</time>
      </trkpt>
      <trkpt lat="43.43331" lon="6.52658">
        <ele>88.1</ele>
        <time>2019-02-06T13:48:55Z</time>
      </trkpt>
      <trkpt lat="43.43335" lon="6.5267">
        <ele>88.6</ele>
        <time>2019-02-06T13:49:03Z</time>
      </trkpt>
      <trkpt lat="43.43339" lon="6.52681">
        <ele>89.1</ele>
        <time>2019-02-06T13:49:12Z</time>
      </trkpt>
      <trkpt lat="43.43337" lon="6.52695">
        <ele>89.7</ele>
        <time>2019-02-06T13:49:21Z</time>
      </trkpt>
      <trkpt lat="43.43332" lon="6.52705">
        <ele>90.5</ele>
        <time>2019-02-06T13:49:31Z</time>
      </trkpt>
      <trkpt lat="43.43325" lon="6.52714">
        <ele>91.3</ele>
        <time>2019-02-06T13:49:40Z</time>
      </trkpt>
      <trkpt lat="43.43318" lon="6.52722">
        <ele>91.9</ele>
        <time>2019-02-06T13:49:47Z</time>
      </trkpt>
      <trkpt lat="43.43311" lon="6.5273">
        <ele>92.6</ele>
        <time>2019-02-06T13:49:55Z</time>
      </trkpt>
      <trkpt lat="43.43305" lon="6.52738">
        <ele>93.4</ele>
        <time>2019-02-06T13:50:04Z</time>
      </trkpt>
      <trkpt lat="43.433" lon="6.52749">
        <ele>94.1</ele>
        <time>2019-02-06T13:50:13Z</time>
      </trkpt>
      <trkpt lat="43.43294" lon="6.52759">
        <ele>95.1</ele>
        <time>2019-02-06T13:50:23Z</time>
      </trkpt>
      <trkpt lat="43.43287" lon="6.52768">
        <ele>95.8</ele>
        <time>2019-02-06T13:50:32Z</time>
      </trkpt>
      <trkpt lat="43.43281" lon="6.52778">
        <ele>96.7</ele>
        <time>2019-02-06T13:50:43Z</time>
      </trkpt>
      <trkpt lat="43.43274" lon="6.52786">
        <ele>97.3</ele>
        <time>2019-02-06T13:50:52Z</time>
      </trkpt>
      <trkpt lat="43.43273" lon="6.52799">
        <ele>98</ele>
        <time>2019-02-06T13:51:02Z</time>
      </trkpt>
      <trkpt lat="43.43271" lon="6.52813">
        <ele>98.5</ele>
        <time>2019-02-06T13:51:10Z</time>
      </trkpt>
      <trkpt lat="43.4327" lon="6.52825">
        <ele>99.1</ele>
        <time>2019-02-06T13:51:18Z</time>
      </trkpt>
      <trkpt lat="43.43267" lon="6.52837">
        <ele>99.9</ele>
        <time>2019-02-06T13:51:29Z</time>
      </trkpt>
      <trkpt lat="43.43267" lon="6.52877">
        <ele>102</ele>
        <time>2019-02-06T13:52:06Z</time>
      </trkpt>
      <trkpt lat="43.43269" lon="6.52889">
        <ele>103.3</ele>
        <time>2019-02-06T13:52:11Z</time>
      </trkpt>
      <trkpt lat="43.43276" lon="6.52899">
        <ele>103.7</ele>
        <time>2019-02-06T13:52:18Z</time>
      </trkpt>
      <trkpt lat="43.4328" lon="6.52911">
        <ele>104.4</ele>
        <time>2019-02-06T13:52:27Z</time>
      </trkpt>
      <trkpt lat="43.43284" lon="6.52923">
        <ele>105.2</ele>
        <time>2019-02-06T13:52:42Z</time>
      </trkpt>
      <trkpt lat="43.43291" lon="6.52932">
        <ele>105.8</ele>
        <time>2019-02-06T13:52:52Z</time>
      </trkpt>
      <trkpt lat="43.43295" lon="6.52943">
        <ele>106.5</ele>
        <time>2019-02-06T13:53:01Z</time>
      </trkpt>
      <trkpt lat="43.433" lon="6.52954">
        <ele>107.7</ele>
        <time>2019-02-06T13:53:18Z</time>
      </trkpt>
      <trkpt lat="43.43301" lon="6.52967">
        <ele>108.5</ele>
        <time>2019-02-06T13:53:38Z</time>
      </trkpt>
      <trkpt lat="43.43303" lon="6.52979">
        <ele>108.7</ele>
        <time>2019-02-06T13:53:46Z</time>
      </trkpt>
      <trkpt lat="43.4331" lon="6.52985">
        <ele>109.3</ele>
        <time>2019-02-06T13:54:01Z</time>
      </trkpt>
      <trkpt lat="43.43318" lon="6.52994">
        <ele>110.2</ele>
        <time>2019-02-06T13:54:12Z</time>
      </trkpt>
      <trkpt lat="43.43324" lon="6.53004">
        <ele>111.1</ele>
        <time>2019-02-06T13:54:22Z</time>
      </trkpt>
      <trkpt lat="43.43331" lon="6.53013">
        <ele>111.9</ele>
        <time>2019-02-06T13:54:31Z</time>
      </trkpt>
      <trkpt lat="43.43338" lon="6.53022">
        <ele>112.6</ele>
        <time>2019-02-06T13:54:40Z</time>
      </trkpt>
      <trkpt lat="43.4334" lon="6.53034">
        <ele>113.2</ele>
        <time>2019-02-06T13:54:48Z</time>
      </trkpt>
      <trkpt lat="43.43348" lon="6.53042">
        <ele>113.8</ele>
        <time>2019-02-06T13:54:58Z</time>
      </trkpt>
      <trkpt lat="43.43352" lon="6.53054">
        <ele>114.2</ele>
        <time>2019-02-06T13:55:09Z</time>
      </trkpt>
      <trkpt lat="43.43355" lon="6.53041">
        <ele>114.4</ele>
        <time>2019-02-06T13:55:25Z</time>
      </trkpt>
      <trkpt lat="43.43351" lon="6.53029">
        <ele>114.4</ele>
        <time>2019-02-06T13:55:33Z</time>
      </trkpt>
      <trkpt lat="43.43349" lon="6.53016">
        <ele>114.4</ele>
        <time>2019-02-06T13:55:50Z</time>
      </trkpt>
      <trkpt lat="43.43346" lon="6.53004">
        <ele>114.4</ele>
        <time>2019-02-06T13:56:03Z</time>
      </trkpt>
      <trkpt lat="43.43342" lon="6.52993">
        <ele>114.5</ele>
        <time>2019-02-06T13:56:17Z</time>
      </trkpt>
      <trkpt lat="43.43338" lon="6.52981">
        <ele>114.7</ele>
        <time>2019-02-06T13:56:49Z</time>
      </trkpt>
      <trkpt lat="43.43338" lon="6.52969">
        <ele>114.6</ele>
        <time>2019-02-06T13:56:58Z</time>
      </trkpt>
      <trkpt lat="43.43335" lon="6.52956">
        <ele>114.6</ele>
        <time>2019-02-06T13:57:11Z</time>
      </trkpt>
      <trkpt lat="43.43334" lon="6.52943">
        <ele>114.5</ele>
        <time>2019-02-06T13:57:22Z</time>
      </trkpt>
      <trkpt lat="43.43334" lon="6.52931">
        <ele>114.5</ele>
        <time>2019-02-06T13:57:34Z</time>
      </trkpt>
      <trkpt lat="43.43333" lon="6.52918">
        <ele>114.4</ele>
        <time>2019-02-06T13:57:45Z</time>
      </trkpt>
      <trkpt lat="43.43333" lon="6.52905">
        <ele>114.4</ele>
        <time>2019-02-06T13:57:54Z</time>
      </trkpt>
      <trkpt lat="43.43334" lon="6.52893">
        <ele>114.3</ele>
        <time>2019-02-06T13:58:03Z</time>
      </trkpt>
      <trkpt lat="43.43338" lon="6.52882">
        <ele>114.2</ele>
        <time>2019-02-06T13:58:15Z</time>
      </trkpt>
      <trkpt lat="43.43347" lon="6.52875">
        <ele>114.3</ele>
        <time>2019-02-06T13:58:27Z</time>
      </trkpt>
      <trkpt lat="43.43356" lon="6.52873">
        <ele>114.5</ele>
        <time>2019-02-06T13:58:42Z</time>
      </trkpt>
      <trkpt lat="43.43364" lon="6.52868">
        <ele>115</ele>
        <time>2019-02-06T13:58:53Z</time>
      </trkpt>
      <trkpt lat="43.43373" lon="6.52863">
        <ele>115.6</ele>
        <time>2019-02-06T13:59:03Z</time>
      </trkpt>
      <trkpt lat="43.43379" lon="6.52853">
        <ele>116.2</ele>
        <time>2019-02-06T13:59:12Z</time>
      </trkpt>
      <trkpt lat="43.43386" lon="6.52845">
        <ele>116.9</ele>
        <time>2019-02-06T13:59:21Z</time>
      </trkpt>
      <trkpt lat="43.43395" lon="6.52842">
        <ele>117.6</ele>
        <time>2019-02-06T13:59:33Z</time>
      </trkpt>
      <trkpt lat="43.43404" lon="6.52839">
        <ele>118.1</ele>
        <time>2019-02-06T13:59:45Z</time>
      </trkpt>
      <trkpt lat="43.43416" lon="6.5284">
        <ele>118.8</ele>
        <time>2019-02-06T14:00:01Z</time>
      </trkpt>
      <trkpt lat="43.43425" lon="6.52838">
        <ele>119.3</ele>
        <time>2019-02-06T14:00:14Z</time>
      </trkpt>
      <trkpt lat="43.43434" lon="6.52838">
        <ele>119.5</ele>
        <time>2019-02-06T14:00:25Z</time>
      </trkpt>
      <trkpt lat="43.43443" lon="6.52833">
        <ele>120.2</ele>
        <time>2019-02-06T14:00:44Z</time>
      </trkpt>
      <trkpt lat="43.43453" lon="6.52818">
        <ele>121.1</ele>
        <time>2019-02-06T14:02:31Z</time>
      </trkpt>
      <trkpt lat="43.43459" lon="6.52808">
        <ele>121.5</ele>
        <time>2019-02-06T14:02:49Z</time>
      </trkpt>
      <trkpt lat="43.43465" lon="6.52798">
        <ele>121.8</ele>
        <time>2019-02-06T14:02:59Z</time>
      </trkpt>
      <trkpt lat="43.43473" lon="6.52792">
        <ele>122.2</ele>
        <time>2019-02-06T14:03:14Z</time>
      </trkpt>
      <trkpt lat="43.43479" lon="6.52782">
        <ele>122.7</ele>
        <time>2019-02-06T14:03:25Z</time>
      </trkpt>
      <trkpt lat="43.43487" lon="6.52776">
        <ele>123.2</ele>
        <time>2019-02-06T14:03:34Z</time>
      </trkpt>
      <trkpt lat="43.43496" lon="6.52772">
        <ele>123.9</ele>
        <time>2019-02-06T14:03:47Z</time>
      </trkpt>
      <trkpt lat="43.43505" lon="6.52772">
        <ele>125.3</ele>
        <time>2019-02-06T14:04:02Z</time>
      </trkpt>
      <trkpt lat="43.43512" lon="6.52764">
        <ele>126</ele>
        <time>2019-02-06T14:04:15Z</time>
      </trkpt>
      <trkpt lat="43.43522" lon="6.52764">
        <ele>126</ele>
        <time>2019-02-06T14:04:25Z</time>
      </trkpt>
      <trkpt lat="43.43531" lon="6.5277">
        <ele>125.9</ele>
        <time>2019-02-06T14:04:34Z</time>
      </trkpt>
      <trkpt lat="43.43538" lon="6.52778">
        <ele>125.8</ele>
        <time>2019-02-06T14:04:43Z</time>
      </trkpt>
      <trkpt lat="43.43545" lon="6.52786">
        <ele>126</ele>
        <time>2019-02-06T14:04:54Z</time>
      </trkpt>
      <trkpt lat="43.43553" lon="6.52794">
        <ele>126.6</ele>
        <time>2019-02-06T14:05:05Z</time>
      </trkpt>
      <trkpt lat="43.4356" lon="6.52801">
        <ele>127.3</ele>
        <time>2019-02-06T14:05:17Z</time>
      </trkpt>
      <trkpt lat="43.43567" lon="6.52809">
        <ele>127.9</ele>
        <time>2019-02-06T14:05:28Z</time>
      </trkpt>
      <trkpt lat="43.43577" lon="6.52809">
        <ele>128.1</ele>
        <time>2019-02-06T14:05:40Z</time>
      </trkpt>
      <trkpt lat="43.43587" lon="6.52807">
        <ele>128.2</ele>
        <time>2019-02-06T14:05:48Z</time>
      </trkpt>
      <trkpt lat="43.43596" lon="6.52802">
        <ele>128.4</ele>
        <time>2019-02-06T14:06:01Z</time>
      </trkpt>
      <trkpt lat="43.43606" lon="6.52801">
        <ele>128.7</ele>
        <time>2019-02-06T14:06:09Z</time>
      </trkpt>
      <trkpt lat="43.43616" lon="6.52798">
        <ele>129</ele>
        <time>2019-02-06T14:06:18Z</time>
      </trkpt>
      <trkpt lat="43.43625" lon="6.52793">
        <ele>129.4</ele>
        <time>2019-02-06T14:06:27Z</time>
      </trkpt>
      <trkpt lat="43.43635" lon="6.5279">
        <ele>130</ele>
        <time>2019-02-06T14:06:36Z</time>
      </trkpt>
      <trkpt lat="43.43644" lon="6.52786">
        <ele>130.6</ele>
        <time>2019-02-06T14:06:45Z</time>
      </trkpt>
      <trkpt lat="43.43653" lon="6.52785">
        <ele>131</ele>
        <time>2019-02-06T14:06:51Z</time>
      </trkpt>
      <trkpt lat="43.43663" lon="6.52787">
        <ele>131.3</ele>
        <time>2019-02-06T14:06:59Z</time>
      </trkpt>
      <trkpt lat="43.43672" lon="6.5279">
        <ele>131.5</ele>
        <time>2019-02-06T14:07:07Z</time>
      </trkpt>
      <trkpt lat="43.4368" lon="6.52796">
        <ele>131.9</ele>
        <time>2019-02-06T14:07:18Z</time>
      </trkpt>
      <trkpt lat="43.43687" lon="6.52804">
        <ele>132.4</ele>
        <time>2019-02-06T14:07:26Z</time>
      </trkpt>
      <trkpt lat="43.43696" lon="6.5281">
        <ele>133</ele>
        <time>2019-02-06T14:07:37Z</time>
      </trkpt>
      <trkpt lat="43.43704" lon="6.52816">
        <ele>133.6</ele>
        <time>2019-02-06T14:07:48Z</time>
      </trkpt>
      <trkpt lat="43.43711" lon="6.52824">
        <ele>134.2</ele>
        <time>2019-02-06T14:07:59Z</time>
      </trkpt>
      <trkpt lat="43.43715" lon="6.52836">
        <ele>134.9</ele>
        <time>2019-02-06T14:08:09Z</time>
      </trkpt>
      <trkpt lat="43.43716" lon="6.52849">
        <ele>135.5</ele>
        <time>2019-02-06T14:08:19Z</time>
      </trkpt>
      <trkpt lat="43.43715" lon="6.52863">
        <ele>136.4</ele>
        <time>2019-02-06T14:08:31Z</time>
      </trkpt>
      <trkpt lat="43.43715" lon="6.52877">
        <ele>137</ele>
        <time>2019-02-06T14:08:42Z</time>
      </trkpt>
      <trkpt lat="43.43716" lon="6.5289">
        <ele>137.5</ele>
        <time>2019-02-06T14:08:52Z</time>
      </trkpt>
      <trkpt lat="43.43717" lon="6.52903">
        <ele>138.3</ele>
        <time>2019-02-06T14:09:04Z</time>
      </trkpt>
      <trkpt lat="43.43719" lon="6.52916">
        <ele>138.8</ele>
        <time>2019-02-06T14:09:14Z</time>
      </trkpt>
      <trkpt lat="43.43717" lon="6.52929">
        <ele>139.3</ele>
        <time>2019-02-06T14:09:24Z</time>
      </trkpt>
      <trkpt lat="43.43713" lon="6.5294">
        <ele>139.8</ele>
        <time>2019-02-06T14:09:35Z</time>
      </trkpt>
      <trkpt lat="43.43712" lon="6.52954">
        <ele>140.4</ele>
        <time>2019-02-06T14:09:46Z</time>
      </trkpt>
      <trkpt lat="43.43715" lon="6.52966">
        <ele>141</ele>
        <time>2019-02-06T14:09:56Z</time>
      </trkpt>
      <trkpt lat="43.43715" lon="6.5298">
        <ele>141.7</ele>
        <time>2019-02-06T14:10:07Z</time>
      </trkpt>
      <trkpt lat="43.4372" lon="6.52992">
        <ele>142.4</ele>
        <time>2019-02-06T14:10:22Z</time>
      </trkpt>
      <trkpt lat="43.43728" lon="6.52998">
        <ele>142.9</ele>
        <time>2019-02-06T14:10:28Z</time>
      </trkpt>
      <trkpt lat="43.43737" lon="6.53004">
        <ele>143.2</ele>
        <time>2019-02-06T14:10:32Z</time>
      </trkpt>
      <trkpt lat="43.43743" lon="6.53013">
        <ele>143.9</ele>
        <time>2019-02-06T14:10:43Z</time>
      </trkpt>
      <trkpt lat="43.43749" lon="6.53022">
        <ele>145.3</ele>
        <time>2019-02-06T14:11:06Z</time>
      </trkpt>
      <trkpt lat="43.43754" lon="6.53034">
        <ele>145.9</ele>
        <time>2019-02-06T14:11:15Z</time>
      </trkpt>
      <trkpt lat="43.4376" lon="6.53044">
        <ele>146.3</ele>
        <time>2019-02-06T14:11:21Z</time>
      </trkpt>
      <trkpt lat="43.43768" lon="6.53052">
        <ele>146.9</ele>
        <time>2019-02-06T14:11:32Z</time>
      </trkpt>
      <trkpt lat="43.43776" lon="6.53056">
        <ele>147.9</ele>
        <time>2019-02-06T14:11:50Z</time>
      </trkpt>
      <trkpt lat="43.43785" lon="6.53056">
        <ele>148.2</ele>
        <time>2019-02-06T14:11:59Z</time>
      </trkpt>
      <trkpt lat="43.43795" lon="6.53055">
        <ele>148.8</ele>
        <time>2019-02-06T14:12:10Z</time>
      </trkpt>
      <trkpt lat="43.43804" lon="6.53051">
        <ele>149.5</ele>
        <time>2019-02-06T14:12:23Z</time>
      </trkpt>
      <trkpt lat="43.43814" lon="6.5305">
        <ele>150.1</ele>
        <time>2019-02-06T14:12:33Z</time>
      </trkpt>
      <trkpt lat="43.43823" lon="6.53049">
        <ele>150.5</ele>
        <time>2019-02-06T14:12:41Z</time>
      </trkpt>
      <trkpt lat="43.43831" lon="6.53043">
        <ele>151.1</ele>
        <time>2019-02-06T14:12:50Z</time>
      </trkpt>
      <trkpt lat="43.4384" lon="6.53039">
        <ele>151.8</ele>
        <time>2019-02-06T14:13:00Z</time>
      </trkpt>
      <trkpt lat="43.4385" lon="6.53036">
        <ele>152.4</ele>
        <time>2019-02-06T14:13:09Z</time>
      </trkpt>
      <trkpt lat="43.43859" lon="6.53035">
        <ele>153.2</ele>
        <time>2019-02-06T14:13:22Z</time>
      </trkpt>
      <trkpt lat="43.43869" lon="6.53037">
        <ele>153.9</ele>
        <time>2019-02-06T14:13:33Z</time>
      </trkpt>
      <trkpt lat="43.43878" lon="6.53043">
        <ele>154.5</ele>
        <time>2019-02-06T14:13:47Z</time>
      </trkpt>
      <trkpt lat="43.43886" lon="6.53049">
        <ele>154.7</ele>
        <time>2019-02-06T14:13:58Z</time>
      </trkpt>
      <trkpt lat="43.43895" lon="6.53054">
        <ele>155</ele>
        <time>2019-02-06T14:14:10Z</time>
      </trkpt>
      <trkpt lat="43.43905" lon="6.53055">
        <ele>155.2</ele>
        <time>2019-02-06T14:14:21Z</time>
      </trkpt>
      <trkpt lat="43.43913" lon="6.53062">
        <ele>155.1</ele>
        <time>2019-02-06T14:14:34Z</time>
      </trkpt>
      <trkpt lat="43.43922" lon="6.53066">
        <ele>155.2</ele>
        <time>2019-02-06T14:14:56Z</time>
      </trkpt>
      <trkpt lat="43.43931" lon="6.5307">
        <ele>155.5</ele>
        <time>2019-02-06T14:15:08Z</time>
      </trkpt>
      <trkpt lat="43.43938" lon="6.53078">
        <ele>155.9</ele>
        <time>2019-02-06T14:15:17Z</time>
      </trkpt>
      <trkpt lat="43.43947" lon="6.53083">
        <ele>156.3</ele>
        <time>2019-02-06T14:15:26Z</time>
      </trkpt>
      <trkpt lat="43.43955" lon="6.5309">
        <ele>156.7</ele>
        <time>2019-02-06T14:15:36Z</time>
      </trkpt>
      <trkpt lat="43.43961" lon="6.531">
        <ele>157.1</ele>
        <time>2019-02-06T14:15:47Z</time>
      </trkpt>
      <trkpt lat="43.43961" lon="6.53123">
        <ele>156</ele>
        <time>2019-02-06T14:27:47Z</time>
      </trkpt>
      <trkpt lat="43.43957" lon="6.53136">
        <ele>156.7</ele>
        <time>2019-02-06T14:27:58Z</time>
      </trkpt>
      <trkpt lat="43.43951" lon="6.53146">
        <ele>156.9</ele>
        <time>2019-02-06T14:28:08Z</time>
      </trkpt>
      <trkpt lat="43.43944" lon="6.53156">
        <ele>157.5</ele>
        <time>2019-02-06T14:28:18Z</time>
      </trkpt>
      <trkpt lat="43.43938" lon="6.53166">
        <ele>157.9</ele>
        <time>2019-02-06T14:28:28Z</time>
      </trkpt>
      <trkpt lat="43.43933" lon="6.53176">
        <ele>158.3</ele>
        <time>2019-02-06T14:28:37Z</time>
      </trkpt>
      <trkpt lat="43.43929" lon="6.53188">
        <ele>158.7</ele>
        <time>2019-02-06T14:28:45Z</time>
      </trkpt>
      <trkpt lat="43.43926" lon="6.53199">
        <ele>159</ele>
        <time>2019-02-06T14:28:54Z</time>
      </trkpt>
      <trkpt lat="43.43924" lon="6.53212">
        <ele>159.5</ele>
        <time>2019-02-06T14:29:04Z</time>
      </trkpt>
      <trkpt lat="43.4392" lon="6.53224">
        <ele>159.7</ele>
        <time>2019-02-06T14:29:13Z</time>
      </trkpt>
      <trkpt lat="43.43916" lon="6.53236">
        <ele>160</ele>
        <time>2019-02-06T14:29:22Z</time>
      </trkpt>
      <trkpt lat="43.43912" lon="6.53247">
        <ele>160.1</ele>
        <time>2019-02-06T14:29:32Z</time>
      </trkpt>
      <trkpt lat="43.43906" lon="6.53257">
        <ele>160.3</ele>
        <time>2019-02-06T14:29:42Z</time>
      </trkpt>
      <trkpt lat="43.43899" lon="6.53265">
        <ele>160.5</ele>
        <time>2019-02-06T14:29:51Z</time>
      </trkpt>
      <trkpt lat="43.43892" lon="6.53274">
        <ele>160.9</ele>
        <time>2019-02-06T14:30:01Z</time>
      </trkpt>
      <trkpt lat="43.43883" lon="6.53281">
        <ele>161.2</ele>
        <time>2019-02-06T14:30:10Z</time>
      </trkpt>
      <trkpt lat="43.43875" lon="6.53289">
        <ele>161.4</ele>
        <time>2019-02-06T14:30:17Z</time>
      </trkpt>
      <trkpt lat="43.43867" lon="6.53296">
        <ele>161.7</ele>
        <time>2019-02-06T14:30:25Z</time>
      </trkpt>
      <trkpt lat="43.43859" lon="6.53303">
        <ele>162.1</ele>
        <time>2019-02-06T14:30:33Z</time>
      </trkpt>
      <trkpt lat="43.43851" lon="6.53309">
        <ele>162.3</ele>
        <time>2019-02-06T14:30:40Z</time>
      </trkpt>
      <trkpt lat="43.43841" lon="6.53315">
        <ele>162.6</ele>
        <time>2019-02-06T14:30:46Z</time>
      </trkpt>
      <trkpt lat="43.43832" lon="6.53319">
        <ele>163</ele>
        <time>2019-02-06T14:30:54Z</time>
      </trkpt>
      <trkpt lat="43.43823" lon="6.53323">
        <ele>163.5</ele>
        <time>2019-02-06T14:31:02Z</time>
      </trkpt>
      <trkpt lat="43.43815" lon="6.53331">
        <ele>163.8</ele>
        <time>2019-02-06T14:31:10Z</time>
      </trkpt>
      <trkpt lat="43.43807" lon="6.53339">
        <ele>164.3</ele>
        <time>2019-02-06T14:31:20Z</time>
      </trkpt>
      <trkpt lat="43.43798" lon="6.53344">
        <ele>164.9</ele>
        <time>2019-02-06T14:31:29Z</time>
      </trkpt>
      <trkpt lat="43.43791" lon="6.53351">
        <ele>165.6</ele>
        <time>2019-02-06T14:31:39Z</time>
      </trkpt>
      <trkpt lat="43.43783" lon="6.53357">
        <ele>166.5</ele>
        <time>2019-02-06T14:31:50Z</time>
      </trkpt>
      <trkpt lat="43.43775" lon="6.53365">
        <ele>167.4</ele>
        <time>2019-02-06T14:31:58Z</time>
      </trkpt>
      <trkpt lat="43.43767" lon="6.53373">
        <ele>167.9</ele>
        <time>2019-02-06T14:32:06Z</time>
      </trkpt>
      <trkpt lat="43.43759" lon="6.5338">
        <ele>168.4</ele>
        <time>2019-02-06T14:32:14Z</time>
      </trkpt>
      <trkpt lat="43.4375" lon="6.53385">
        <ele>168.9</ele>
        <time>2019-02-06T14:32:24Z</time>
      </trkpt>
      <trkpt lat="43.43741" lon="6.53385">
        <ele>169.2</ele>
        <time>2019-02-06T14:32:34Z</time>
      </trkpt>
      <trkpt lat="43.43731" lon="6.53383">
        <ele>169.3</ele>
        <time>2019-02-06T14:32:44Z</time>
      </trkpt>
      <trkpt lat="43.43723" lon="6.53376">
        <ele>168.8</ele>
        <time>2019-02-06T14:33:05Z</time>
      </trkpt>
      <trkpt lat="43.43714" lon="6.53372">
        <ele>167.6</ele>
        <time>2019-02-06T14:33:54Z</time>
      </trkpt>
      <trkpt lat="43.43706" lon="6.53365">
        <ele>167.5</ele>
        <time>2019-02-06T14:34:04Z</time>
      </trkpt>
      <trkpt lat="43.43698" lon="6.5336">
        <ele>167.5</ele>
        <time>2019-02-06T14:34:12Z</time>
      </trkpt>
      <trkpt lat="43.43689" lon="6.53354">
        <ele>167.5</ele>
        <time>2019-02-06T14:34:19Z</time>
      </trkpt>
      <trkpt lat="43.4368" lon="6.53356">
        <ele>167.5</ele>
        <time>2019-02-06T14:34:35Z</time>
      </trkpt>
      <trkpt lat="43.4367" lon="6.53357">
        <ele>167.7</ele>
        <time>2019-02-06T14:34:45Z</time>
      </trkpt>
      <trkpt lat="43.43661" lon="6.53359">
        <ele>168.1</ele>
        <time>2019-02-06T14:34:55Z</time>
      </trkpt>
      <trkpt lat="43.43651" lon="6.53362">
        <ele>168.5</ele>
        <time>2019-02-06T14:35:04Z</time>
      </trkpt>
      <trkpt lat="43.43642" lon="6.53365">
        <ele>168.9</ele>
        <time>2019-02-06T14:35:14Z</time>
      </trkpt>
      <trkpt lat="43.43633" lon="6.53368">
        <ele>169.5</ele>
        <time>2019-02-06T14:35:23Z</time>
      </trkpt>
      <trkpt lat="43.43624" lon="6.5337">
        <ele>170.5</ele>
        <time>2019-02-06T14:35:37Z</time>
      </trkpt>
      <trkpt lat="43.43613" lon="6.53373">
        <ele>173.2</ele>
        <time>2019-02-06T14:37:03Z</time>
      </trkpt>
      <trkpt lat="43.43604" lon="6.53368">
        <ele>173.5</ele>
        <time>2019-02-06T14:37:12Z</time>
      </trkpt>
      <trkpt lat="43.43595" lon="6.5337">
        <ele>174.1</ele>
        <time>2019-02-06T14:37:22Z</time>
      </trkpt>
      <trkpt lat="43.43586" lon="6.53371">
        <ele>174.9</ele>
        <time>2019-02-06T14:37:32Z</time>
      </trkpt>
      <trkpt lat="43.43576" lon="6.53373">
        <ele>175.7</ele>
        <time>2019-02-06T14:37:42Z</time>
      </trkpt>
      <trkpt lat="43.43567" lon="6.53374">
        <ele>176.4</ele>
        <time>2019-02-06T14:37:51Z</time>
      </trkpt>
      <trkpt lat="43.43558" lon="6.53378">
        <ele>177.5</ele>
        <time>2019-02-06T14:38:01Z</time>
      </trkpt>
      <trkpt lat="43.43548" lon="6.5338">
        <ele>178</ele>
        <time>2019-02-06T14:38:09Z</time>
      </trkpt>
      <trkpt lat="43.4354" lon="6.53376">
        <ele>178.7</ele>
        <time>2019-02-06T14:38:18Z</time>
      </trkpt>
      <trkpt lat="43.4353" lon="6.53372">
        <ele>179.3</ele>
        <time>2019-02-06T14:38:29Z</time>
      </trkpt>
      <trkpt lat="43.43521" lon="6.53372">
        <ele>179.6</ele>
        <time>2019-02-06T14:38:41Z</time>
      </trkpt>
      <trkpt lat="43.43511" lon="6.53375">
        <ele>179.5</ele>
        <time>2019-02-06T14:38:51Z</time>
      </trkpt>
      <trkpt lat="43.43501" lon="6.53375">
        <ele>179.1</ele>
        <time>2019-02-06T14:39:00Z</time>
      </trkpt>
      <trkpt lat="43.43492" lon="6.53376">
        <ele>178.6</ele>
        <time>2019-02-06T14:39:09Z</time>
      </trkpt>
      <trkpt lat="43.43482" lon="6.53378">
        <ele>177.9</ele>
        <time>2019-02-06T14:39:17Z</time>
      </trkpt>
      <trkpt lat="43.43472" lon="6.53379">
        <ele>177.3</ele>
        <time>2019-02-06T14:39:25Z</time>
      </trkpt>
      <trkpt lat="43.43463" lon="6.53382">
        <ele>176.5</ele>
        <time>2019-02-06T14:39:33Z</time>
      </trkpt>
      <trkpt lat="43.43454" lon="6.53384">
        <ele>175.7</ele>
        <time>2019-02-06T14:39:42Z</time>
      </trkpt>
      <trkpt lat="43.43445" lon="6.53388">
        <ele>174.9</ele>
        <time>2019-02-06T14:39:50Z</time>
      </trkpt>
      <trkpt lat="43.43436" lon="6.53392">
        <ele>174.2</ele>
        <time>2019-02-06T14:39:57Z</time>
      </trkpt>
      <trkpt lat="43.43427" lon="6.53392">
        <ele>173.4</ele>
        <time>2019-02-06T14:40:04Z</time>
      </trkpt>
      <trkpt lat="43.43417" lon="6.53391">
        <ele>172.5</ele>
        <time>2019-02-06T14:40:13Z</time>
      </trkpt>
      <trkpt lat="43.43409" lon="6.53384">
        <ele>171.7</ele>
        <time>2019-02-06T14:40:23Z</time>
      </trkpt>
      <trkpt lat="43.43401" lon="6.53377">
        <ele>170.9</ele>
        <time>2019-02-06T14:40:33Z</time>
      </trkpt>
      <trkpt lat="43.43392" lon="6.53376">
        <ele>170</ele>
        <time>2019-02-06T14:40:43Z</time>
      </trkpt>
      <trkpt lat="43.43383" lon="6.53377">
        <ele>169.1</ele>
        <time>2019-02-06T14:40:51Z</time>
      </trkpt>
      <trkpt lat="43.43374" lon="6.5338">
        <ele>168.6</ele>
        <time>2019-02-06T14:40:57Z</time>
      </trkpt>
      <trkpt lat="43.43364" lon="6.53383">
        <ele>168.1</ele>
        <time>2019-02-06T14:41:04Z</time>
      </trkpt>
      <trkpt lat="43.43356" lon="6.53378">
        <ele>167.8</ele>
        <time>2019-02-06T14:41:09Z</time>
      </trkpt>
      <trkpt lat="43.4335" lon="6.53367">
        <ele>167.5</ele>
        <time>2019-02-06T14:41:17Z</time>
      </trkpt>
      <trkpt lat="43.43353" lon="6.53355">
        <ele>167.2</ele>
        <time>2019-02-06T14:41:27Z</time>
      </trkpt>
      <trkpt lat="43.43357" lon="6.53342">
        <ele>166.5</ele>
        <time>2019-02-06T14:41:36Z</time>
      </trkpt>
      <trkpt lat="43.43361" lon="6.53331">
        <ele>166</ele>
        <time>2019-02-06T14:41:43Z</time>
      </trkpt>
      <trkpt lat="43.43367" lon="6.53321">
        <ele>165.5</ele>
        <time>2019-02-06T14:41:50Z</time>
      </trkpt>
      <trkpt lat="43.43372" lon="6.53309">
        <ele>164.9</ele>
        <time>2019-02-06T14:41:59Z</time>
      </trkpt>
      <trkpt lat="43.43376" lon="6.53297">
        <ele>164.2</ele>
        <time>2019-02-06T14:42:07Z</time>
      </trkpt>
      <trkpt lat="43.4338" lon="6.53285">
        <ele>163.5</ele>
        <time>2019-02-06T14:42:14Z</time>
      </trkpt>
      <trkpt lat="43.4338" lon="6.53271">
        <ele>162.8</ele>
        <time>2019-02-06T14:42:22Z</time>
      </trkpt>
      <trkpt lat="43.43377" lon="6.53259">
        <ele>162.2</ele>
        <time>2019-02-06T14:42:30Z</time>
      </trkpt>
      <trkpt lat="43.43372" lon="6.53247">
        <ele>161.4</ele>
        <time>2019-02-06T14:42:38Z</time>
      </trkpt>
      <trkpt lat="43.43367" lon="6.53236">
        <ele>160.6</ele>
        <time>2019-02-06T14:42:46Z</time>
      </trkpt>
      <trkpt lat="43.43362" lon="6.53225">
        <ele>159.7</ele>
        <time>2019-02-06T14:42:55Z</time>
      </trkpt>
      <trkpt lat="43.43357" lon="6.53215">
        <ele>159</ele>
        <time>2019-02-06T14:43:02Z</time>
      </trkpt>
      <trkpt lat="43.4335" lon="6.53206">
        <ele>158.4</ele>
        <time>2019-02-06T14:43:09Z</time>
      </trkpt>
      <trkpt lat="43.43344" lon="6.53197">
        <ele>157.8</ele>
        <time>2019-02-06T14:43:17Z</time>
      </trkpt>
      <trkpt lat="43.43337" lon="6.53187">
        <ele>157.1</ele>
        <time>2019-02-06T14:43:25Z</time>
      </trkpt>
      <trkpt lat="43.43331" lon="6.53177">
        <ele>156.3</ele>
        <time>2019-02-06T14:43:33Z</time>
      </trkpt>
      <trkpt lat="43.43324" lon="6.53167">
        <ele>155.5</ele>
        <time>2019-02-06T14:43:41Z</time>
      </trkpt>
      <trkpt lat="43.43317" lon="6.53158">
        <ele>154.7</ele>
        <time>2019-02-06T14:43:48Z</time>
      </trkpt>
      <trkpt lat="43.43311" lon="6.53149">
        <ele>153.7</ele>
        <time>2019-02-06T14:43:56Z</time>
      </trkpt>
      <trkpt lat="43.43303" lon="6.53139">
        <ele>152.8</ele>
        <time>2019-02-06T14:44:04Z</time>
      </trkpt>
      <trkpt lat="43.43296" lon="6.5313">
        <ele>152.1</ele>
        <time>2019-02-06T14:44:10Z</time>
      </trkpt>
      <trkpt lat="43.43291" lon="6.5312">
        <ele>151.3</ele>
        <time>2019-02-06T14:44:18Z</time>
      </trkpt>
      <trkpt lat="43.43283" lon="6.5311">
        <ele>150.5</ele>
        <time>2019-02-06T14:44:26Z</time>
      </trkpt>
      <trkpt lat="43.43274" lon="6.53106">
        <ele>149.9</ele>
        <time>2019-02-06T14:44:34Z</time>
      </trkpt>
      <trkpt lat="43.43264" lon="6.53104">
        <ele>149.2</ele>
        <time>2019-02-06T14:44:41Z</time>
      </trkpt>
      <trkpt lat="43.43256" lon="6.531">
        <ele>148.5</ele>
        <time>2019-02-06T14:44:49Z</time>
      </trkpt>
      <trkpt lat="43.43245" lon="6.531">
        <ele>147.9</ele>
        <time>2019-02-06T14:44:55Z</time>
      </trkpt>
      <trkpt lat="43.43236" lon="6.531">
        <ele>147.3</ele>
        <time>2019-02-06T14:45:02Z</time>
      </trkpt>
      <trkpt lat="43.43226" lon="6.53099">
        <ele>146.6</ele>
        <time>2019-02-06T14:45:09Z</time>
      </trkpt>
      <trkpt lat="43.43218" lon="6.53092">
        <ele>145.9</ele>
        <time>2019-02-06T14:45:15Z</time>
      </trkpt>
      <trkpt lat="43.43215" lon="6.53079">
        <ele>144.9</ele>
        <time>2019-02-06T14:45:25Z</time>
      </trkpt>
      <trkpt lat="43.43216" lon="6.53066">
        <ele>143.9</ele>
        <time>2019-02-06T14:45:33Z</time>
      </trkpt>
      <trkpt lat="43.4322" lon="6.53054">
        <ele>142.9</ele>
        <time>2019-02-06T14:45:42Z</time>
      </trkpt>
      <trkpt lat="43.43224" lon="6.53042">
        <ele>142.1</ele>
        <time>2019-02-06T14:45:50Z</time>
      </trkpt>
      <trkpt lat="43.43228" lon="6.5303">
        <ele>141.1</ele>
        <time>2019-02-06T14:45:59Z</time>
      </trkpt>
      <trkpt lat="43.43227" lon="6.53016">
        <ele>140.2</ele>
        <time>2019-02-06T14:46:07Z</time>
      </trkpt>
      <trkpt lat="43.43223" lon="6.53003">
        <ele>139.2</ele>
        <time>2019-02-06T14:46:16Z</time>
      </trkpt>
      <trkpt lat="43.43218" lon="6.52993">
        <ele>138.7</ele>
        <time>2019-02-06T14:46:21Z</time>
      </trkpt>
      <trkpt lat="43.43213" lon="6.52981">
        <ele>137.7</ele>
        <time>2019-02-06T14:46:29Z</time>
      </trkpt>
      <trkpt lat="43.43211" lon="6.52968">
        <ele>136.8</ele>
        <time>2019-02-06T14:46:37Z</time>
      </trkpt>
      <trkpt lat="43.4321" lon="6.52954">
        <ele>135.9</ele>
        <time>2019-02-06T14:46:45Z</time>
      </trkpt>
      <trkpt lat="43.43207" lon="6.52942">
        <ele>135.3</ele>
        <time>2019-02-06T14:46:51Z</time>
      </trkpt>
      <trkpt lat="43.43206" lon="6.52928">
        <ele>134.7</ele>
        <time>2019-02-06T14:47:00Z</time>
      </trkpt>
      <trkpt lat="43.43203" lon="6.52916">
        <ele>134.1</ele>
        <time>2019-02-06T14:47:07Z</time>
      </trkpt>
      <trkpt lat="43.43202" lon="6.52903">
        <ele>133.7</ele>
        <time>2019-02-06T14:47:14Z</time>
      </trkpt>
      <trkpt lat="43.43202" lon="6.5289">
        <ele>133.3</ele>
        <time>2019-02-06T14:47:21Z</time>
      </trkpt>
      <trkpt lat="43.43202" lon="6.52876">
        <ele>132.9</ele>
        <time>2019-02-06T14:47:30Z</time>
      </trkpt>
      <trkpt lat="43.43204" lon="6.52863">
        <ele>132.5</ele>
        <time>2019-02-06T14:47:38Z</time>
      </trkpt>
      <trkpt lat="43.43203" lon="6.52849">
        <ele>131.9</ele>
        <time>2019-02-06T14:47:47Z</time>
      </trkpt>
      <trkpt lat="43.43203" lon="6.52837">
        <ele>131.4</ele>
        <time>2019-02-06T14:47:53Z</time>
      </trkpt>
      <trkpt lat="43.432" lon="6.52825">
        <ele>130.8</ele>
        <time>2019-02-06T14:48:03Z</time>
      </trkpt>
      <trkpt lat="43.43197" lon="6.52813">
        <ele>130.2</ele>
        <time>2019-02-06T14:48:20Z</time>
      </trkpt>
      <trkpt lat="43.43194" lon="6.528">
        <ele>129.6</ele>
        <time>2019-02-06T14:48:30Z</time>
      </trkpt>
      <trkpt lat="43.43195" lon="6.52787">
        <ele>128.9</ele>
        <time>2019-02-06T14:49:03Z</time>
      </trkpt>
      <trkpt lat="43.43195" lon="6.52773">
        <ele>128.5</ele>
        <time>2019-02-06T14:49:13Z</time>
      </trkpt>
      <trkpt lat="43.43193" lon="6.5276">
        <ele>127.8</ele>
        <time>2019-02-06T14:49:35Z</time>
      </trkpt>
      <trkpt lat="43.43192" lon="6.52748">
        <ele>127.6</ele>
        <time>2019-02-06T14:49:42Z</time>
      </trkpt>
      <trkpt lat="43.43191" lon="6.52734">
        <ele>127.3</ele>
        <time>2019-02-06T14:49:50Z</time>
      </trkpt>
      <trkpt lat="43.43185" lon="6.52724">
        <ele>127</ele>
        <time>2019-02-06T14:50:00Z</time>
      </trkpt>
      <trkpt lat="43.43178" lon="6.52732">
        <ele>125.8</ele>
        <time>2019-02-06T14:50:13Z</time>
      </trkpt>
      <trkpt lat="43.43179" lon="6.52745">
        <ele>125</ele>
        <time>2019-02-06T14:50:21Z</time>
      </trkpt>
      <trkpt lat="43.4318" lon="6.5276">
        <ele>124.2</ele>
        <time>2019-02-06T14:50:29Z</time>
      </trkpt>
      <trkpt lat="43.4318" lon="6.52772">
        <ele>123.3</ele>
        <time>2019-02-06T14:50:38Z</time>
      </trkpt>
      <trkpt lat="43.43177" lon="6.52785">
        <ele>122.3</ele>
        <time>2019-02-06T14:50:46Z</time>
      </trkpt>
      <trkpt lat="43.43173" lon="6.52798">
        <ele>121.1</ele>
        <time>2019-02-06T14:50:55Z</time>
      </trkpt>
      <trkpt lat="43.43168" lon="6.52809">
        <ele>119.9</ele>
        <time>2019-02-06T14:51:04Z</time>
      </trkpt>
      <trkpt lat="43.4316" lon="6.52816">
        <ele>118.8</ele>
        <time>2019-02-06T14:51:12Z</time>
      </trkpt>
      <trkpt lat="43.43152" lon="6.52823">
        <ele>117.6</ele>
        <time>2019-02-06T14:51:21Z</time>
      </trkpt>
      <trkpt lat="43.43143" lon="6.52829">
        <ele>116.4</ele>
        <time>2019-02-06T14:51:30Z</time>
      </trkpt>
      <trkpt lat="43.43133" lon="6.52832">
        <ele>115.1</ele>
        <time>2019-02-06T14:51:40Z</time>
      </trkpt>
      <trkpt lat="43.43124" lon="6.52832">
        <ele>114</ele>
        <time>2019-02-06T14:51:48Z</time>
      </trkpt>
      <trkpt lat="43.43114" lon="6.52828">
        <ele>113</ele>
        <time>2019-02-06T14:51:57Z</time>
      </trkpt>
      <trkpt lat="43.43105" lon="6.52823">
        <ele>111.9</ele>
        <time>2019-02-06T14:52:05Z</time>
      </trkpt>
      <trkpt lat="43.43096" lon="6.52818">
        <ele>110.6</ele>
        <time>2019-02-06T14:52:14Z</time>
      </trkpt>
      <trkpt lat="43.43087" lon="6.52812">
        <ele>109.5</ele>
        <time>2019-02-06T14:52:22Z</time>
      </trkpt>
      <trkpt lat="43.43078" lon="6.52808">
        <ele>108.3</ele>
        <time>2019-02-06T14:52:30Z</time>
      </trkpt>
      <trkpt lat="43.43069" lon="6.52804">
        <ele>107.2</ele>
        <time>2019-02-06T14:52:39Z</time>
      </trkpt>
      <trkpt lat="43.4306" lon="6.52808">
        <ele>106.2</ele>
        <time>2019-02-06T14:52:47Z</time>
      </trkpt>
      <trkpt lat="43.43053" lon="6.52816">
        <ele>105.1</ele>
        <time>2019-02-06T14:52:56Z</time>
      </trkpt>
      <trkpt lat="43.43046" lon="6.52825">
        <ele>104.2</ele>
        <time>2019-02-06T14:53:04Z</time>
      </trkpt>
      <trkpt lat="43.43038" lon="6.52833">
        <ele>103.4</ele>
        <time>2019-02-06T14:53:13Z</time>
      </trkpt>
      <trkpt lat="43.43029" lon="6.52827">
        <ele>102.6</ele>
        <time>2019-02-06T14:53:21Z</time>
      </trkpt>
      <trkpt lat="43.43024" lon="6.52816">
        <ele>102</ele>
        <time>2019-02-06T14:53:30Z</time>
      </trkpt>
      <trkpt lat="43.43021" lon="6.52803">
        <ele>101.2</ele>
        <time>2019-02-06T14:53:38Z</time>
      </trkpt>
      <trkpt lat="43.43017" lon="6.52792">
        <ele>100</ele>
        <time>2019-02-06T14:53:47Z</time>
      </trkpt>
      <trkpt lat="43.43013" lon="6.5278">
        <ele>98.8</ele>
        <time>2019-02-06T14:53:56Z</time>
      </trkpt>
      <trkpt lat="43.43008" lon="6.52768">
        <ele>97.5</ele>
        <time>2019-02-06T14:54:05Z</time>
      </trkpt>
      <trkpt lat="43.43005" lon="6.52755">
        <ele>96.1</ele>
        <time>2019-02-06T14:54:14Z</time>
      </trkpt>
      <trkpt lat="43.43002" lon="6.52741">
        <ele>94.8</ele>
        <time>2019-02-06T14:54:22Z</time>
      </trkpt>
      <trkpt lat="43.42999" lon="6.52728">
        <ele>93.4</ele>
        <time>2019-02-06T14:54:30Z</time>
      </trkpt>
      <trkpt lat="43.42996" lon="6.52716">
        <ele>92</ele>
        <time>2019-02-06T14:54:39Z</time>
      </trkpt>
      <trkpt lat="43.42991" lon="6.52705">
        <ele>90.8</ele>
        <time>2019-02-06T14:54:47Z</time>
      </trkpt>
      <trkpt lat="43.42986" lon="6.52695">
        <ele>89.7</ele>
        <time>2019-02-06T14:54:54Z</time>
      </trkpt>
      <trkpt lat="43.42979" lon="6.52685">
        <ele>88.6</ele>
        <time>2019-02-06T14:55:02Z</time>
      </trkpt>
      <trkpt lat="43.42973" lon="6.52676">
        <ele>87.7</ele>
        <time>2019-02-06T14:55:09Z</time>
      </trkpt>
      <trkpt lat="43.42966" lon="6.52666">
        <ele>86.5</ele>
        <time>2019-02-06T14:55:17Z</time>
      </trkpt>
      <trkpt lat="43.42959" lon="6.52656">
        <ele>85.1</ele>
        <time>2019-02-06T14:55:25Z</time>
      </trkpt>
      <trkpt lat="43.42954" lon="6.52645">
        <ele>83.9</ele>
        <time>2019-02-06T14:55:33Z</time>
      </trkpt>
      <trkpt lat="43.42947" lon="6.52635">
        <ele>82.6</ele>
        <time>2019-02-06T14:55:41Z</time>
      </trkpt>
      <trkpt lat="43.42943" lon="6.52624">
        <ele>81.2</ele>
        <time>2019-02-06T14:55:49Z</time>
      </trkpt>
      <trkpt lat="43.42938" lon="6.52612">
        <ele>79.8</ele>
        <time>2019-02-06T14:55:57Z</time>
      </trkpt>
      <trkpt lat="43.42936" lon="6.52599">
        <ele>78.6</ele>
        <time>2019-02-06T14:56:05Z</time>
      </trkpt>
      <trkpt lat="43.42933" lon="6.52586">
        <ele>77.4</ele>
        <time>2019-02-06T14:56:14Z</time>
      </trkpt>
      <trkpt lat="43.42931" lon="6.52573">
        <ele>76.3</ele>
        <time>2019-02-06T14:56:23Z</time>
      </trkpt>
      <trkpt lat="43.42928" lon="6.52561">
        <ele>74.9</ele>
        <time>2019-02-06T14:56:32Z</time>
      </trkpt>
      <trkpt lat="43.42923" lon="6.5255">
        <ele>73.7</ele>
        <time>2019-02-06T14:56:41Z</time>
      </trkpt>
      <trkpt lat="43.42915" lon="6.52542">
        <ele>72.6</ele>
        <time>2019-02-06T14:56:50Z</time>
      </trkpt>
      <trkpt lat="43.42906" lon="6.52538">
        <ele>71.3</ele>
        <time>2019-02-06T14:57:00Z</time>
      </trkpt>
      <trkpt lat="43.42897" lon="6.52535">
        <ele>70.1</ele>
        <time>2019-02-06T14:57:09Z</time>
      </trkpt>
      <trkpt lat="43.4289" lon="6.52527">
        <ele>65.1</ele>
        <time>2019-02-06T15:00:21Z</time>
      </trkpt>
      <trkpt lat="43.42897" lon="6.52518">
        <ele>64.7</ele>
        <time>2019-02-06T15:00:33Z</time>
      </trkpt>
      <trkpt lat="43.42906" lon="6.52522">
        <ele>63.7</ele>
        <time>2019-02-06T15:00:44Z</time>
      </trkpt>
      <trkpt lat="43.42915" lon="6.52517">
        <ele>62.3</ele>
        <time>2019-02-06T15:00:57Z</time>
      </trkpt>
      <trkpt lat="43.42923" lon="6.5251">
        <ele>61.1</ele>
        <time>2019-02-06T15:01:07Z</time>
      </trkpt>
      <trkpt lat="43.42931" lon="6.52502">
        <ele>59.8</ele>
        <time>2019-02-06T15:01:17Z</time>
      </trkpt>
      <trkpt lat="43.42938" lon="6.52493">
        <ele>58.5</ele>
        <time>2019-02-06T15:01:27Z</time>
      </trkpt>
      <trkpt lat="43.42945" lon="6.52485">
        <ele>57</ele>
        <time>2019-02-06T15:01:36Z</time>
      </trkpt>
      <trkpt lat="43.42949" lon="6.52474">
        <ele>55.6</ele>
        <time>2019-02-06T15:01:45Z</time>
      </trkpt>
      <trkpt lat="43.42956" lon="6.52466">
        <ele>54.5</ele>
        <time>2019-02-06T15:01:54Z</time>
      </trkpt>
      <trkpt lat="43.42965" lon="6.52468">
        <ele>53.4</ele>
        <time>2019-02-06T15:02:03Z</time>
      </trkpt>
      <trkpt lat="43.42971" lon="6.5248">
        <ele>51.7</ele>
        <time>2019-02-06T15:02:18Z</time>
      </trkpt>
      <trkpt lat="43.42971" lon="6.52493">
        <ele>50.8</ele>
        <time>2019-02-06T15:02:26Z</time>
      </trkpt>
      <trkpt lat="43.4297" lon="6.52506">
        <ele>49.9</ele>
        <time>2019-02-06T15:02:35Z</time>
      </trkpt>
      <trkpt lat="43.4297" lon="6.5252">
        <ele>48.6</ele>
        <time>2019-02-06T15:02:49Z</time>
      </trkpt>
      <trkpt lat="43.4298" lon="6.52517">
        <ele>47.5</ele>
        <time>2019-02-06T15:02:59Z</time>
      </trkpt>
      <trkpt lat="43.42985" lon="6.52506">
        <ele>46.4</ele>
        <time>2019-02-06T15:03:07Z</time>
      </trkpt>
      <trkpt lat="43.42989" lon="6.52495">
        <ele>45.3</ele>
        <time>2019-02-06T15:03:15Z</time>
      </trkpt>
      <trkpt lat="43.42993" lon="6.52482">
        <ele>44.1</ele>
        <time>2019-02-06T15:03:24Z</time>
      </trkpt>
      <trkpt lat="43.42998" lon="6.5247">
        <ele>43.2</ele>
        <time>2019-02-06T15:03:32Z</time>
      </trkpt>
      <trkpt lat="43.43002" lon="6.52459">
        <ele>42</ele>
        <time>2019-02-06T15:03:41Z</time>
      </trkpt>
      <trkpt lat="43.43003" lon="6.52446">
        <ele>40.7</ele>
        <time>2019-02-06T15:03:51Z</time>
      </trkpt>
      <trkpt lat="43.43" lon="6.52434">
        <ele>39.5</ele>
        <time>2019-02-06T15:04:01Z</time>
      </trkpt>
      <trkpt lat="43.42995" lon="6.52422">
        <ele>38.1</ele>
        <time>2019-02-06T15:04:13Z</time>
      </trkpt>
      <trkpt lat="43.42994" lon="6.52409">
        <ele>36.9</ele>
        <time>2019-02-06T15:04:25Z</time>
      </trkpt>
      <trkpt lat="43.42994" lon="6.52396">
        <ele>36.4</ele>
        <time>2019-02-06T15:04:32Z</time>
      </trkpt>
      <trkpt lat="43.42989" lon="6.52385">
        <ele>35.8</ele>
        <time>2019-02-06T15:04:41Z</time>
      </trkpt>
      <trkpt lat="43.42981" lon="6.52377">
        <ele>35.4</ele>
        <time>2019-02-06T15:04:49Z</time>
      </trkpt>
      <trkpt lat="43.42971" lon="6.52375">
        <ele>34.8</ele>
        <time>2019-02-06T15:04:59Z</time>
      </trkpt>
      <trkpt lat="43.42963" lon="6.52384">
        <ele>34.4</ele>
        <time>2019-02-06T15:05:05Z</time>
      </trkpt>
      <trkpt lat="43.42955" lon="6.52392">
        <ele>34</ele>
        <time>2019-02-06T15:05:12Z</time>
      </trkpt>
      <trkpt lat="43.42947" lon="6.52398">
        <ele>33.7</ele>
        <time>2019-02-06T15:05:19Z</time>
      </trkpt>
      <trkpt lat="43.42939" lon="6.52405">
        <ele>33.4</ele>
        <time>2019-02-06T15:05:28Z</time>
      </trkpt>
      <trkpt lat="43.4293" lon="6.52405">
        <ele>33.2</ele>
        <time>2019-02-06T15:05:35Z</time>
      </trkpt>
      <trkpt lat="43.42921" lon="6.52408">
        <ele>33</ele>
        <time>2019-02-06T15:05:44Z</time>
      </trkpt>
      <trkpt lat="43.42911" lon="6.52407">
        <ele>32.7</ele>
        <time>2019-02-06T15:05:52Z</time>
      </trkpt>
      <trkpt lat="43.42902" lon="6.52401">
        <ele>32.3</ele>
        <time>2019-02-06T15:06:03Z</time>
      </trkpt>
      <trkpt lat="43.42894" lon="6.52391">
        <ele>32</ele>
        <time>2019-02-06T15:06:11Z</time>
      </trkpt>
      <trkpt lat="43.42884" lon="6.52388">
        <ele>31.6</ele>
        <time>2019-02-06T15:06:18Z</time>
      </trkpt>
      <trkpt lat="43.42875" lon="6.52386">
        <ele>31.3</ele>
        <time>2019-02-06T15:06:26Z</time>
      </trkpt>
      <trkpt lat="43.42865" lon="6.52385">
        <ele>31.1</ele>
        <time>2019-02-06T15:06:34Z</time>
      </trkpt>
      <trkpt lat="43.42856" lon="6.52383">
        <ele>30.9</ele>
        <time>2019-02-06T15:06:43Z</time>
      </trkpt>
      <trkpt lat="43.42847" lon="6.52379">
        <ele>30.8</ele>
        <time>2019-02-06T15:06:50Z</time>
      </trkpt>
      <trkpt lat="43.42844" lon="6.52365">
        <ele>30.6</ele>
        <time>2019-02-06T15:07:06Z</time>
      </trkpt>
      <trkpt lat="43.42856" lon="6.5236">
        <ele>30.4</ele>
        <time>2019-02-06T15:07:28Z</time>
      </trkpt>
      <trkpt lat="43.42865" lon="6.52357">
        <ele>30.3</ele>
        <time>2019-02-06T15:07:39Z</time>
      </trkpt>
      <trkpt lat="43.42872" lon="6.52348">
        <ele>30.1</ele>
        <time>2019-02-06T15:07:49Z</time>
      </trkpt>
      <trkpt lat="43.4288" lon="6.52341">
        <ele>29.9</ele>
        <time>2019-02-06T15:07:58Z</time>
      </trkpt>
      <trkpt lat="43.42888" lon="6.52332">
        <ele>29.7</ele>
        <time>2019-02-06T15:08:05Z</time>
      </trkpt>
      <trkpt lat="43.42897" lon="6.5233">
        <ele>29.6</ele>
        <time>2019-02-06T15:08:16Z</time>
      </trkpt>
      <trkpt lat="43.42907" lon="6.52332">
        <ele>29.5</ele>
        <time>2019-02-06T15:08:22Z</time>
      </trkpt>
      <trkpt lat="43.42916" lon="6.52336">
        <ele>29.5</ele>
        <time>2019-02-06T15:08:28Z</time>
      </trkpt>
      <trkpt lat="43.42926" lon="6.52334">
        <ele>29.4</ele>
        <time>2019-02-06T15:08:37Z</time>
      </trkpt>
      <trkpt lat="43.42935" lon="6.52328">
        <ele>29.5</ele>
        <time>2019-02-06T15:08:44Z</time>
      </trkpt>
      <trkpt lat="43.42943" lon="6.52319">
        <ele>29.5</ele>
        <time>2019-02-06T15:08:50Z</time>
      </trkpt>
      <trkpt lat="43.4295" lon="6.52311">
        <ele>29.6</ele>
        <time>2019-02-06T15:08:56Z</time>
      </trkpt>
      <trkpt lat="43.42958" lon="6.52304">
        <ele>29.6</ele>
        <time>2019-02-06T15:09:04Z</time>
      </trkpt>
      <trkpt lat="43.42963" lon="6.52293">
        <ele>29.7</ele>
        <time>2019-02-06T15:09:14Z</time>
      </trkpt>
      <trkpt lat="43.4297" lon="6.52284">
        <ele>29.7</ele>
        <time>2019-02-06T15:09:24Z</time>
      </trkpt>
      <trkpt lat="43.42978" lon="6.52276">
        <ele>29.7</ele>
        <time>2019-02-06T15:09:30Z</time>
      </trkpt>
      <trkpt lat="43.42985" lon="6.52267">
        <ele>29.7</ele>
        <time>2019-02-06T15:09:37Z</time>
      </trkpt>
      <trkpt lat="43.4299" lon="6.52255">
        <ele>29.6</ele>
        <time>2019-02-06T15:09:46Z</time>
      </trkpt>
      <trkpt lat="43.42991" lon="6.52242">
        <ele>29.6</ele>
        <time>2019-02-06T15:09:53Z</time>
      </trkpt>
      <trkpt lat="43.42991" lon="6.52229">
        <ele>29.6</ele>
        <time>2019-02-06T15:10:00Z</time>
      </trkpt>
      <trkpt lat="43.42992" lon="6.52216">
        <ele>29.5</ele>
        <time>2019-02-06T15:10:08Z</time>
      </trkpt>
      <trkpt lat="43.42992" lon="6.52203">
        <ele>29.4</ele>
        <time>2019-02-06T15:10:15Z</time>
      </trkpt>
      <trkpt lat="43.42988" lon="6.5219">
        <ele>29.4</ele>
        <time>2019-02-06T15:10:23Z</time>
      </trkpt>
      <trkpt lat="43.42986" lon="6.52177">
        <ele>29.3</ele>
        <time>2019-02-06T15:10:32Z</time>
      </trkpt>
      <trkpt lat="43.42985" lon="6.52164">
        <ele>29.3</ele>
        <time>2019-02-06T15:10:41Z</time>
      </trkpt>
      <trkpt lat="43.42982" lon="6.52152">
        <ele>29.2</ele>
        <time>2019-02-06T15:10:50Z</time>
      </trkpt>
      <trkpt lat="43.42975" lon="6.52141">
        <ele>29.1</ele>
        <time>2019-02-06T15:10:59Z</time>
      </trkpt>
      <trkpt lat="43.4297" lon="6.52129">
        <ele>29.1</ele>
        <time>2019-02-06T15:11:07Z</time>
      </trkpt>
      <trkpt lat="43.42966" lon="6.52119">
        <ele>29</ele>
        <time>2019-02-06T15:11:16Z</time>
      </trkpt>
      <trkpt lat="43.42959" lon="6.5211">
        <ele>28.9</ele>
        <time>2019-02-06T15:11:25Z</time>
      </trkpt>
      <trkpt lat="43.42953" lon="6.52099">
        <ele>28.9</ele>
        <time>2019-02-06T15:11:33Z</time>
      </trkpt>
      <trkpt lat="43.42948" lon="6.52088">
        <ele>28.8</ele>
        <time>2019-02-06T15:11:41Z</time>
      </trkpt>
      <trkpt lat="43.42945" lon="6.52076">
        <ele>28.7</ele>
        <time>2019-02-06T15:11:52Z</time>
      </trkpt>
      <trkpt lat="43.42945" lon="6.52062">
        <ele>28.6</ele>
        <time>2019-02-06T15:12:02Z</time>
      </trkpt>
      <trkpt lat="43.42943" lon="6.52048">
        <ele>28.6</ele>
        <time>2019-02-06T15:12:10Z</time>
      </trkpt>
      <trkpt lat="43.42942" lon="6.52035">
        <ele>28.5</ele>
        <time>2019-02-06T15:12:16Z</time>
      </trkpt>
      <trkpt lat="43.42939" lon="6.52022">
        <ele>28.5</ele>
        <time>2019-02-06T15:12:24Z</time>
      </trkpt>
      <trkpt lat="43.42937" lon="6.52009">
        <ele>28.5</ele>
        <time>2019-02-06T15:12:33Z</time>
      </trkpt>
      <trkpt lat="43.42934" lon="6.51997">
        <ele>28.4</ele>
        <time>2019-02-06T15:12:41Z</time>
      </trkpt>
      <trkpt lat="43.42931" lon="6.51984">
        <ele>28.6</ele>
        <time>2019-02-06T15:12:50Z</time>
      </trkpt>
      <trkpt lat="43.42927" lon="6.51972">
        <ele>29</ele>
        <time>2019-02-06T15:12:59Z</time>
      </trkpt>
      <trkpt lat="43.42924" lon="6.51959">
        <ele>29.4</ele>
        <time>2019-02-06T15:13:09Z</time>
      </trkpt>
      <trkpt lat="43.42917" lon="6.51949">
        <ele>30.2</ele>
        <time>2019-02-06T15:13:25Z</time>
      </trkpt>
      <trkpt lat="43.42914" lon="6.51938">
        <ele>30.6</ele>
        <time>2019-02-06T15:13:33Z</time>
      </trkpt>
      <trkpt lat="43.42913" lon="6.51925">
        <ele>31</ele>
        <time>2019-02-06T15:13:40Z</time>
      </trkpt>
      <trkpt lat="43.42911" lon="6.51912">
        <ele>31.6</ele>
        <time>2019-02-06T15:13:49Z</time>
      </trkpt>
      <trkpt lat="43.42909" lon="6.51899">
        <ele>32.2</ele>
        <time>2019-02-06T15:14:00Z</time>
      </trkpt>
      <trkpt lat="43.42904" lon="6.51888">
        <ele>32.7</ele>
        <time>2019-02-06T15:14:08Z</time>
      </trkpt>
      <trkpt lat="43.42901" lon="6.51875">
        <ele>33.4</ele>
        <time>2019-02-06T15:14:16Z</time>
      </trkpt>
      <trkpt lat="43.42899" lon="6.51862">
        <ele>33.8</ele>
        <time>2019-02-06T15:14:24Z</time>
      </trkpt>
      <trkpt lat="43.42898" lon="6.51849">
        <ele>34.3</ele>
        <time>2019-02-06T15:14:32Z</time>
      </trkpt>
      <trkpt lat="43.42896" lon="6.51836">
        <ele>34.8</ele>
        <time>2019-02-06T15:14:41Z</time>
      </trkpt>
      <trkpt lat="43.42897" lon="6.51822">
        <ele>35</ele>
        <time>2019-02-06T15:14:50Z</time>
      </trkpt>
      <trkpt lat="43.42898" lon="6.51809">
        <ele>35.2</ele>
        <time>2019-02-06T15:14:58Z</time>
      </trkpt>
      <trkpt lat="43.42896" lon="6.51795">
        <ele>35.2</ele>
        <time>2019-02-06T15:15:05Z</time>
      </trkpt>
      <trkpt lat="43.42892" lon="6.51783">
        <ele>35.2</ele>
        <time>2019-02-06T15:15:11Z</time>
      </trkpt>
      <trkpt lat="43.42889" lon="6.5177">
        <ele>35.1</ele>
        <time>2019-02-06T15:15:18Z</time>
      </trkpt>
      <trkpt lat="43.42889" lon="6.51757">
        <ele>35</ele>
        <time>2019-02-06T15:15:25Z</time>
      </trkpt>
      <trkpt lat="43.42888" lon="6.51743">
        <ele>35</ele>
        <time>2019-02-06T15:15:32Z</time>
      </trkpt>
      <trkpt lat="43.42887" lon="6.51731">
        <ele>34.9</ele>
        <time>2019-02-06T15:15:39Z</time>
      </trkpt>
      <trkpt lat="43.42883" lon="6.51719">
        <ele>34.8</ele>
        <time>2019-02-06T15:15:46Z</time>
      </trkpt>
      <trkpt lat="43.42879" lon="6.51707">
        <ele>34.8</ele>
        <time>2019-02-06T15:15:53Z</time>
      </trkpt>
      <trkpt lat="43.42871" lon="6.51698">
        <ele>34.7</ele>
        <time>2019-02-06T15:16:01Z</time>
      </trkpt>
      <trkpt lat="43.42863" lon="6.51689">
        <ele>34.7</ele>
        <time>2019-02-06T15:16:09Z</time>
      </trkpt>
      <trkpt lat="43.42859" lon="6.51678">
        <ele>34.9</ele>
        <time>2019-02-06T15:16:17Z</time>
      </trkpt>
      <trkpt lat="43.42858" lon="6.51664">
        <ele>35.3</ele>
        <time>2019-02-06T15:16:26Z</time>
      </trkpt>
      <trkpt lat="43.42858" lon="6.51651">
        <ele>35.5</ele>
        <time>2019-02-06T15:16:34Z</time>
      </trkpt>
      <trkpt lat="43.42859" lon="6.51638">
        <ele>35.5</ele>
        <time>2019-02-06T15:16:41Z</time>
      </trkpt>
      <trkpt lat="43.42862" lon="6.51626">
        <ele>35.6</ele>
        <time>2019-02-06T15:16:46Z</time>
      </trkpt>
      <trkpt lat="43.42869" lon="6.51615">
        <ele>35.8</ele>
        <time>2019-02-06T15:16:55Z</time>
      </trkpt>
      <trkpt lat="43.42877" lon="6.51608">
        <ele>36</ele>
        <time>2019-02-06T15:17:04Z</time>
      </trkpt>
      <trkpt lat="43.42885" lon="6.516">
        <ele>36.1</ele>
        <time>2019-02-06T15:17:12Z</time>
      </trkpt>
      <trkpt lat="43.4289" lon="6.51587">
        <ele>36.3</ele>
        <time>2019-02-06T15:17:19Z</time>
      </trkpt>
      <trkpt lat="43.42893" lon="6.51576">
        <ele>36.5</ele>
        <time>2019-02-06T15:17:28Z</time>
      </trkpt>
      <trkpt lat="43.42899" lon="6.51565">
        <ele>36.6</ele>
        <time>2019-02-06T15:17:33Z</time>
      </trkpt>
      <trkpt lat="43.42907" lon="6.51556">
        <ele>36.8</ele>
        <time>2019-02-06T15:17:41Z</time>
      </trkpt>
      <trkpt lat="43.42914" lon="6.51548">
        <ele>37</ele>
        <time>2019-02-06T15:17:49Z</time>
      </trkpt>
      <trkpt lat="43.42922" lon="6.5154">
        <ele>37.4</ele>
        <time>2019-02-06T15:17:59Z</time>
      </trkpt>
      <trkpt lat="43.42926" lon="6.51528">
        <ele>37.8</ele>
        <time>2019-02-06T15:18:05Z</time>
      </trkpt>
      <trkpt lat="43.42928" lon="6.51515">
        <ele>38.3</ele>
        <time>2019-02-06T15:18:13Z</time>
      </trkpt>
      <trkpt lat="43.42924" lon="6.51502">
        <ele>38.5</ele>
        <time>2019-02-06T15:18:18Z</time>
      </trkpt>
      <trkpt lat="43.42924" lon="6.51489">
        <ele>39</ele>
        <time>2019-02-06T15:18:27Z</time>
      </trkpt>
      <trkpt lat="43.42921" lon="6.51476">
        <ele>39.5</ele>
        <time>2019-02-06T15:18:37Z</time>
      </trkpt>
      <trkpt lat="43.42917" lon="6.51464">
        <ele>39.9</ele>
        <time>2019-02-06T15:18:45Z</time>
      </trkpt>
      <trkpt lat="43.42913" lon="6.51452">
        <ele>40.3</ele>
        <time>2019-02-06T15:18:51Z</time>
      </trkpt>
      <trkpt lat="43.42911" lon="6.5144">
        <ele>40.7</ele>
        <time>2019-02-06T15:18:59Z</time>
      </trkpt>
      <trkpt lat="43.42907" lon="6.51428">
        <ele>41.2</ele>
        <time>2019-02-06T15:19:07Z</time>
      </trkpt>
      <trkpt lat="43.42909" lon="6.51415">
        <ele>41.6</ele>
        <time>2019-02-06T15:19:17Z</time>
      </trkpt>
      <trkpt lat="43.42914" lon="6.51404">
        <ele>41.8</ele>
        <time>2019-02-06T15:19:23Z</time>
      </trkpt>
      <trkpt lat="43.42923" lon="6.51396">
        <ele>42.1</ele>
        <time>2019-02-06T15:19:31Z</time>
      </trkpt>
      <trkpt lat="43.42928" lon="6.51386">
        <ele>42.2</ele>
        <time>2019-02-06T15:19:39Z</time>
      </trkpt>
      <trkpt lat="43.42929" lon="6.51372">
        <ele>42.3</ele>
        <time>2019-02-06T15:19:47Z</time>
      </trkpt>
      <trkpt lat="43.42933" lon="6.5136">
        <ele>42.4</ele>
        <time>2019-02-06T15:19:55Z</time>
      </trkpt>
      <trkpt lat="43.42939" lon="6.5135">
        <ele>42.4</ele>
        <time>2019-02-06T15:20:02Z</time>
      </trkpt>
      <trkpt lat="43.42946" lon="6.51339">
        <ele>42.4</ele>
        <time>2019-02-06T15:20:10Z</time>
      </trkpt>
      <trkpt lat="43.4295" lon="6.51328">
        <ele>42.4</ele>
        <time>2019-02-06T15:20:17Z</time>
      </trkpt>
      <trkpt lat="43.42955" lon="6.51316">
        <ele>42.4</ele>
        <time>2019-02-06T15:20:23Z</time>
      </trkpt>
      <trkpt lat="43.42958" lon="6.51304">
        <ele>42.5</ele>
        <time>2019-02-06T15:20:30Z</time>
      </trkpt>
      <trkpt lat="43.4296" lon="6.51292">
        <ele>42.5</ele>
        <time>2019-02-06T15:20:37Z</time>
      </trkpt>
      <trkpt lat="43.42968" lon="6.51283">
        <ele>42.6</ele>
        <time>2019-02-06T15:20:44Z</time>
      </trkpt>
      <trkpt lat="43.42973" lon="6.51272">
        <ele>42.7</ele>
        <time>2019-02-06T15:20:51Z</time>
      </trkpt>
      <trkpt lat="43.42971" lon="6.51259">
        <ele>42.8</ele>
        <time>2019-02-06T15:20:57Z</time>
      </trkpt>
      <trkpt lat="43.42973" lon="6.51247">
        <ele>42.9</ele>
        <time>2019-02-06T15:21:05Z</time>
      </trkpt>
      <trkpt lat="43.42977" lon="6.51236">
        <ele>43.1</ele>
        <time>2019-02-06T15:21:12Z</time>
      </trkpt>
      <trkpt lat="43.42983" lon="6.51226">
        <ele>43.1</ele>
        <time>2019-02-06T15:21:19Z</time>
      </trkpt>
      <trkpt lat="43.42987" lon="6.51215">
        <ele>43.2</ele>
        <time>2019-02-06T15:21:25Z</time>
      </trkpt>
      <trkpt lat="43.42994" lon="6.51205">
        <ele>43.2</ele>
        <time>2019-02-06T15:21:31Z</time>
      </trkpt>
      <trkpt lat="43.43001" lon="6.51195">
        <ele>43.2</ele>
        <time>2019-02-06T15:21:39Z</time>
      </trkpt>
      <trkpt lat="43.43006" lon="6.51184">
        <ele>43.3</ele>
        <time>2019-02-06T15:21:46Z</time>
      </trkpt>
      <trkpt lat="43.43001" lon="6.51171">
        <ele>43.3</ele>
        <time>2019-02-06T15:21:58Z</time>
      </trkpt>
      <trkpt lat="43.43005" lon="6.51158">
        <ele>43.3</ele>
        <time>2019-02-06T15:22:05Z</time>
      </trkpt>
      <trkpt lat="43.43009" lon="6.51145">
        <ele>43.3</ele>
        <time>2019-02-06T15:22:12Z</time>
      </trkpt>
      <trkpt lat="43.43013" lon="6.51134">
        <ele>43.3</ele>
        <time>2019-02-06T15:22:19Z</time>
      </trkpt>
      <trkpt lat="43.43018" lon="6.51122">
        <ele>43.2</ele>
        <time>2019-02-06T15:22:26Z</time>
      </trkpt>
      <trkpt lat="43.43023" lon="6.5111">
        <ele>43.1</ele>
        <time>2019-02-06T15:22:32Z</time>
      </trkpt>
      <trkpt lat="43.43026" lon="6.51097">
        <ele>42.9</ele>
        <time>2019-02-06T15:22:39Z</time>
      </trkpt>
      <trkpt lat="43.43035" lon="6.51095">
        <ele>42.5</ele>
        <time>2019-02-06T15:22:49Z</time>
      </trkpt>
      <trkpt lat="43.43041" lon="6.51105">
        <ele>42.3</ele>
        <time>2019-02-06T15:22:55Z</time>
      </trkpt>
      <trkpt lat="43.43041" lon="6.51121">
        <ele>42.2</ele>
        <time>2019-02-06T15:23:03Z</time>
      </trkpt>
      <trkpt lat="43.43049" lon="6.51128">
        <ele>42.1</ele>
        <time>2019-02-06T15:23:14Z</time>
      </trkpt>
      <trkpt lat="43.43058" lon="6.51128">
        <ele>42.1</ele>
        <time>2019-02-06T15:23:22Z</time>
      </trkpt>
      <trkpt lat="43.43068" lon="6.51132">
        <ele>42.1</ele>
        <time>2019-02-06T15:23:31Z</time>
      </trkpt>
      <trkpt lat="43.43077" lon="6.5113">
        <ele>42</ele>
        <time>2019-02-06T15:23:37Z</time>
      </trkpt>
      <trkpt lat="43.43087" lon="6.51128">
        <ele>42.1</ele>
        <time>2019-02-06T15:23:44Z</time>
      </trkpt>
      <trkpt lat="43.43096" lon="6.5113">
        <ele>42.5</ele>
        <time>2019-02-06T15:23:57Z</time>
      </trkpt>
      <trkpt lat="43.43107" lon="6.51125">
        <ele>42.8</ele>
        <time>2019-02-06T15:24:07Z</time>
      </trkpt>
      <trkpt lat="43.43116" lon="6.5112">
        <ele>42.7</ele>
        <time>2019-02-06T15:24:13Z</time>
      </trkpt>
      <trkpt lat="43.43125" lon="6.51113">
        <ele>42.4</ele>
        <time>2019-02-06T15:24:20Z</time>
      </trkpt>
      <trkpt lat="43.43134" lon="6.51106">
        <ele>42</ele>
        <time>2019-02-06T15:24:26Z</time>
      </trkpt>
      <trkpt lat="43.43143" lon="6.51097">
        <ele>41.6</ele>
        <time>2019-02-06T15:24:32Z</time>
      </trkpt>
      <trkpt lat="43.43151" lon="6.51088">
        <ele>40.9</ele>
        <time>2019-02-06T15:24:39Z</time>
      </trkpt>
      <trkpt lat="43.43159" lon="6.51079">
        <ele>40.4</ele>
        <time>2019-02-06T15:24:44Z</time>
      </trkpt>
      <trkpt lat="43.43168" lon="6.51071">
        <ele>39.7</ele>
        <time>2019-02-06T15:24:49Z</time>
      </trkpt>
      <trkpt lat="43.43173" lon="6.51058">
        <ele>38.9</ele>
        <time>2019-02-06T15:24:55Z</time>
      </trkpt>
      <trkpt lat="43.43179" lon="6.51047">
        <ele>38.1</ele>
        <time>2019-02-06T15:25:01Z</time>
      </trkpt>
      <trkpt lat="43.43186" lon="6.51039">
        <ele>37.3</ele>
        <time>2019-02-06T15:25:06Z</time>
      </trkpt>
      <trkpt lat="43.43196" lon="6.51035">
        <ele>36.5</ele>
        <time>2019-02-06T15:25:12Z</time>
      </trkpt>
      <trkpt lat="43.43206" lon="6.51035">
        <ele>36</ele>
        <time>2019-02-06T15:25:17Z</time>
      </trkpt>
      <trkpt lat="43.43213" lon="6.51044">
        <ele>34.9</ele>
        <time>2019-02-06T15:25:33Z</time>
      </trkpt>
      <trkpt lat="43.43223" lon="6.51046">
        <ele>34.5</ele>
        <time>2019-02-06T15:25:43Z</time>
      </trkpt>
      <trkpt lat="43.43232" lon="6.51049">
        <ele>34.3</ele>
        <time>2019-02-06T15:25:52Z</time>
      </trkpt>
      <trkpt lat="43.43241" lon="6.51049">
        <ele>34.1</ele>
        <time>2019-02-06T15:26:01Z</time>
      </trkpt>
      <trkpt lat="43.43251" lon="6.5105">
        <ele>34.1</ele>
        <time>2019-02-06T15:26:13Z</time>
      </trkpt>
      <trkpt lat="43.43261" lon="6.51047">
        <ele>34</ele>
        <time>2019-02-06T15:26:21Z</time>
      </trkpt>
      <trkpt lat="43.4327" lon="6.51044">
        <ele>34</ele>
        <time>2019-02-06T15:26:28Z</time>
      </trkpt>
      <trkpt lat="43.4328" lon="6.51039">
        <ele>34</ele>
        <time>2019-02-06T15:26:35Z</time>
      </trkpt>
      <trkpt lat="43.43288" lon="6.51034">
        <ele>34</ele>
        <time>2019-02-06T15:26:41Z</time>
      </trkpt>
      <trkpt lat="43.43298" lon="6.51032">
        <ele>34</ele>
        <time>2019-02-06T15:26:49Z</time>
      </trkpt>
      <trkpt lat="43.43306" lon="6.51027">
        <ele>34.1</ele>
        <time>2019-02-06T15:26:55Z</time>
      </trkpt>
      <trkpt lat="43.43316" lon="6.51025">
        <ele>34.1</ele>
        <time>2019-02-06T15:27:05Z</time>
      </trkpt>
      <trkpt lat="43.43326" lon="6.51023">
        <ele>34.2</ele>
        <time>2019-02-06T15:27:15Z</time>
      </trkpt>
      <trkpt lat="43.43335" lon="6.51019">
        <ele>34.2</ele>
        <time>2019-02-06T15:27:22Z</time>
      </trkpt>
      <trkpt lat="43.43344" lon="6.51019">
        <ele>34.5</ele>
        <time>2019-02-06T15:27:30Z</time>
      </trkpt>
      <trkpt lat="43.43354" lon="6.51021">
        <ele>34.8</ele>
        <time>2019-02-06T15:27:38Z</time>
      </trkpt>
      <trkpt lat="43.43362" lon="6.51029">
        <ele>35</ele>
        <time>2019-02-06T15:27:45Z</time>
      </trkpt>
      <trkpt lat="43.43371" lon="6.51035">
        <ele>35.4</ele>
        <time>2019-02-06T15:27:53Z</time>
      </trkpt>
      <trkpt lat="43.43381" lon="6.51033">
        <ele>35.7</ele>
        <time>2019-02-06T15:28:01Z</time>
      </trkpt>
      <trkpt lat="43.4339" lon="6.51033">
        <ele>36</ele>
        <time>2019-02-06T15:28:09Z</time>
      </trkpt>
      <trkpt lat="43.434" lon="6.51035">
        <ele>36.2</ele>
        <time>2019-02-06T15:28:16Z</time>
      </trkpt>
      <trkpt lat="43.43408" lon="6.51041">
        <ele>36.7</ele>
        <time>2019-02-06T15:28:30Z</time>
      </trkpt>
      <trkpt lat="43.43416" lon="6.51047">
        <ele>36.9</ele>
        <time>2019-02-06T15:28:39Z</time>
      </trkpt>
      <trkpt lat="43.43425" lon="6.51055">
        <ele>37.1</ele>
        <time>2019-02-06T15:28:49Z</time>
      </trkpt>
      <trkpt lat="43.43434" lon="6.51057">
        <ele>37.3</ele>
        <time>2019-02-06T15:28:58Z</time>
      </trkpt>
      <trkpt lat="43.43444" lon="6.51057">
        <ele>37.6</ele>
        <time>2019-02-06T15:29:07Z</time>
      </trkpt>
      <trkpt lat="43.43454" lon="6.51056">
        <ele>37.9</ele>
        <time>2019-02-06T15:29:18Z</time>
      </trkpt>
      <trkpt lat="43.43463" lon="6.51061">
        <ele>38</ele>
        <time>2019-02-06T15:29:27Z</time>
      </trkpt>
      <trkpt lat="43.43472" lon="6.51067">
        <ele>38.2</ele>
        <time>2019-02-06T15:29:37Z</time>
      </trkpt>
      <trkpt lat="43.4348" lon="6.51073">
        <ele>38.3</ele>
        <time>2019-02-06T15:29:46Z</time>
      </trkpt>
      <trkpt lat="43.43489" lon="6.51072">
        <ele>38.3</ele>
        <time>2019-02-06T15:29:55Z</time>
      </trkpt>
      <trkpt lat="43.43498" lon="6.5107">
        <ele>38.3</ele>
        <time>2019-02-06T15:30:06Z</time>
      </trkpt>
      <trkpt lat="43.43507" lon="6.51072">
        <ele>37.9</ele>
        <time>2019-02-06T15:30:54Z</time>
      </trkpt>
      <trkpt lat="43.43517" lon="6.51075">
        <ele>37.2</ele>
        <time>2019-02-06T15:34:53Z</time>
      </trkpt>
      <trkpt lat="43.43526" lon="6.5108">
        <ele>37.1</ele>
        <time>2019-02-06T15:35:38Z</time>
      </trkpt>
      <trkpt lat="43.43534" lon="6.5108">
        <ele>36.7</ele>
        <time>2019-02-06T15:35:48Z</time>
      </trkpt>
    </trkseg>
  </trk>
</gpx>